M I D A S
Marine Information and Data Acquisition System
Tripno 1234 of the Zeeleeuw from 2007-03-19 08:20:02 to 2007-03-19 11:45:25
Back to CruiseResearch ActivitiesStationsMapUnderway DataData graphs

EquipmentUnitsComment
TimeDGPSUTC
LatitudeDGPSDM.mWGS84
LongitudeDGPSDM.mWGS84
TemperatureSBE03/SBE38deg celciusITS90
ConductivitySBE21S/mITS90
SalinitySBE21 Practical Salinity Units
ChlorophylAChelsea fluorimeterg/lCalibrated in Aceton
Missing or incorrect values are displayed as -999
Sea surface data collected by the RV Zeeleeuw from 2007-03-19 08:19:51 to 2007-03-19 12:56:07
                                                                                    Next 1000 lines
Time Latitude Longitude Temperature Conductivity Salinity ChlorophylA
2007-03-19 08:20:01 51°13.598 2°56.094 10.1454 2.668007 22.27319 -2.871232
2007-03-19 08:20:06 51°13.598 2°56.091 10.084 2.669765 22.31526 -2.871232
2007-03-19 08:20:11 51°13.599 2°56.088 10.0956 2.684652 22.484486 -2.871232
2007-03-19 08:20:16 51°13.6 2°56.084 10.0657 2.69499 22.611201 -2.871232
2007-03-19 08:20:21 51°13.601 2°56.079 10.0212 2.706465 22.748255 -2.871232
2007-03-19 08:20:26 51°13.602 2°56.074 9.9592 2.706879 22.77408 -2.871232
2007-03-19 08:20:31 51°13.604 2°56.068 9.9154 2.706879 22.77408 -2.871232
2007-03-19 08:20:36 51°13.606 2°56.061 9.8735 2.711015 22.830931 -2.871232
2007-03-19 08:20:41 51°13.608 2°56.054 9.8542 2.724868 22.97681 -2.871232
2007-03-19 08:20:46 51°13.61 2°56.046 9.8145 2.729107 23.03315 -2.871232
2007-03-19 08:20:52 51°13.614 2°56.037 9.8084 2.735001 23.106132 -2.871232
2007-03-19 08:20:56 51°13.616 2°56.03 9.7826 2.786284 23.620019 -2.871232
2007-03-19 08:21:01 51°13.619 2°56.022 9.7542 2.786284 23.620019 -2.871232
2007-03-19 08:21:06 51°13.622 2°56.014 9.7365 2.837987 24.144329 -2.871232
2007-03-19 08:21:11 51°13.625 2°56.007 9.718 2.878009 24.549179 -2.871232
2007-03-19 08:21:17 51°13.628 2°55.999 9.703 2.907071 24.853079 -2.871232
2007-03-19 08:21:21 51°13.63 2°55.994 9.7115 2.951961 25.301152 -2.871232
2007-03-19 08:21:26 51°13.632 2°55.989 9.6856 2.971201 25.507997 -2.871232
2007-03-19 08:21:31 51°13.635 2°55.985 9.6642 2.971201 25.507997 -2.871232
2007-03-19 08:21:36 51°13.638 2°55.98 9.6837 2.976166 25.57412 -2.871232
2007-03-19 08:21:41 51°13.64 2°55.974 9.6705 2.973994 25.574635 -2.871232
2007-03-19 08:21:46 51°13.643 2°55.969 9.6423 2.961789 25.47205 -2.871232
2007-03-19 08:21:51 51°13.645 2°55.963 9.6288 2.930655 25.195858 -2.871232
2007-03-19 08:21:56 51°13.648 2°55.956 9.6238 2.911934 25.032095 -2.871232
2007-03-19 08:22:01 51°13.65 2°55.949 9.6118 2.911934 25.032095 -2.871232
2007-03-19 08:22:06 51°13.653 2°55.941 9.6064 2.89518 24.883708 -2.871232
2007-03-19 08:22:11 51°13.656 2°55.933 9.5885 2.879046 24.735444 -2.871232
2007-03-19 08:22:16 51°13.659 2°55.924 9.588 2.86829 24.643863 -2.871232
2007-03-19 08:22:21 51°13.662 2°55.916 9.5876 2.856087 24.539194 -2.871232
2007-03-19 08:22:26 51°13.666 2°55.907 9.5856 2.852158 24.514066 -2.871232
2007-03-19 08:22:31 51°13.67 2°55.897 9.5836 2.852158 24.514066 -2.871232
2007-03-19 08:22:36 51°13.673 2°55.888 9.5759 2.863947 24.635268 -2.871232
2007-03-19 08:22:41 51°13.677 2°55.878 9.5695 2.881115 24.807641 -2.871232
2007-03-19 08:22:47 51°13.681 2°55.866 9.5705 2.905523 25.05036 -2.871232
2007-03-19 08:22:51 51°13.684 2°55.858 9.5611 2.923623 25.228954 -2.871232
2007-03-19 08:22:56 51°13.688 2°55.848 9.5614 2.937379 25.364454 -2.871232
2007-03-19 08:23:01 51°13.692 2°55.838 9.5564 2.937379 25.364454 -2.871232
2007-03-19 08:23:06 51°13.696 2°55.829 9.5543 2.948033 25.469868 -2.871232
2007-03-19 08:23:11 51°13.7 2°55.819 9.5439 2.95786 25.567479 -2.871232
2007-03-19 08:23:16 51°13.703 2°55.809 9.5425 2.961273 25.603342 -2.871232
2007-03-19 08:23:21 51°13.707 2°55.8 9.5447 2.966756 25.659618 -2.871232
2007-03-19 08:23:26 51°13.71 2°55.791 9.5451 2.959618 25.596202 -2.871232
2007-03-19 08:23:31 51°13.713 2°55.781 9.5378 2.959618 25.596202 -2.871232
2007-03-19 08:23:37 51°13.716 2°55.771 9.5426 2.952688 25.53277 -2.871232
2007-03-19 08:23:41 51°13.718 2°55.764 9.5301 2.939862 25.416451 -2.871232
2007-03-19 08:23:46 51°13.72 2°55.755 9.5299 2.93107 25.337276 -2.871232
2007-03-19 08:23:51 51°13.722 2°55.746 9.5276 2.917935 25.214758 -2.871232
2007-03-19 08:23:56 51°13.724 2°55.738 9.5206 2.907282 25.114621 -2.871232
2007-03-19 08:24:01 51°13.726 2°55.731 9.5223 2.907282 25.114621 -2.871232
2007-03-19 08:24:06 51°13.727 2°55.724 9.5101 2.906454 25.110007 -2.871232
2007-03-19 08:24:11 51°13.728 2°55.718 9.5117 2.894354 24.998722 -2.871232
2007-03-19 08:24:16 51°13.729 2°55.713 9.5035 2.88608 24.923879 -2.871232
2007-03-19 08:24:21 51°13.729 2°55.712 9.5052 2.88184 24.886124 -2.871232
2007-03-19 08:24:26 51°13.73 2°55.712 9.4966 2.873877 24.814243 -2.871232
2007-03-19 08:24:31 51°13.73 2°55.714 9.4921 2.873877 24.814243 -2.871232
2007-03-19 08:24:36 51°13.73 2°55.717 9.4929 2.861777 24.70239 -2.871232
2007-03-19 08:24:41 51°13.73 2°55.721 9.4988 2.8534 24.627883 -2.871232
2007-03-19 08:24:46 51°13.731 2°55.725 9.4929 2.850194 24.600609 -2.871232
2007-03-19 08:24:51 51°13.731 2°55.727 9.4901 2.841611 24.522221 -2.871232
2007-03-19 08:24:56 51°13.731 2°55.729 9.4955 2.832925 24.4435 -2.871232
2007-03-19 08:25:01 51°13.731 2°55.729 9.4951 2.832925 24.4435 -2.871232
2007-03-19 08:25:06 51°13.731 2°55.729 9.4887 2.827651 24.397208 -2.871232
2007-03-19 08:25:11 51°13.73 2°55.727 9.4898 2.818138 24.31001 -2.871232
2007-03-19 08:25:16 51°13.729 2°55.724 9.4888 2.803971 24.17614 -2.871232
2007-03-19 08:25:21 51°13.728 2°55.721 9.4827 2.780499 23.954733 -2.871232
2007-03-19 08:25:26 51°13.727 2°55.718 9.4839 2.751549 23.681054 -2.871232
2007-03-19 08:25:32 51°13.726 2°55.715 9.4847 2.751549 23.681054 -2.871232
2007-03-19 08:25:36 51°13.725 2°55.713 9.4846 2.721256 23.393831 -2.871232
2007-03-19 08:25:41 51°13.725 2°55.713 9.4877 2.698926 23.184029 -2.871232
2007-03-19 08:25:46 51°13.725 2°55.713 9.4827 2.674115 22.952231 -2.871232
2007-03-19 08:25:51 51°13.726 2°55.714 9.4861 2.655819 22.781466 -2.871232
2007-03-19 08:25:56 51°13.727 2°55.717 9.4943 2.648789 22.716989 -2.871232
2007-03-19 08:26:01 51°13.729 2°55.72 9.4934 2.648789 22.716989 -2.871232
2007-03-19 08:26:06 51°13.731 2°55.723 9.4897 2.664605 22.867289 -2.871232
2007-03-19 08:26:11 51°13.733 2°55.725 9.4819 2.695308 23.157694 -2.871232
2007-03-19 08:26:16 51°13.734 2°55.727 9.4912 2.72105 23.401621 -2.871232
2007-03-19 08:26:21 51°13.735 2°55.729 9.4912 2.733973 23.523278 -2.871232
2007-03-19 08:26:26 51°13.735 2°55.729 9.4904 2.739763 23.576851 -2.871232
2007-03-19 08:26:31 51°13.735 2°55.729 9.4877 2.739763 23.576851 -2.871232
2007-03-19 08:26:36 51°13.734 2°55.729 9.4867 2.733559 23.516915 -2.871232
2007-03-19 08:26:41 51°13.732 2°55.727 9.494 2.721463 23.403705 -2.871232
2007-03-19 08:26:46 51°13.73 2°55.726 9.4917 2.70854 23.282734 -2.871232
2007-03-19 08:26:51 51°13.728 2°55.724 9.4792 2.691069 23.117058 -2.871232
2007-03-19 08:26:56 51°13.726 2°55.722 9.4882 2.677527 22.989803 -2.871232
2007-03-19 08:27:01 51°13.725 2°55.721 9.4904 2.677527 22.989803 -2.871232
2007-03-19 08:27:06 51°13.723 2°55.719 9.4771 2.670704 22.92542 -2.871232
2007-03-19 08:27:11 51°13.721 2°55.718 9.4752 2.661401 22.837661 -2.871232
2007-03-19 08:27:16 51°13.721 2°55.718 9.4772 2.660884 22.832192 -2.871232
2007-03-19 08:27:21 51°13.72 2°55.717 9.4766 2.663778 22.861274 -2.871232
2007-03-19 08:27:26 51°13.721 2°55.718 9.4732 2.692723 23.135692 -2.871232
2007-03-19 08:27:32 51°13.722 2°55.718 9.4729 2.692723 23.135692 -2.871232
2007-03-19 08:27:36 51°13.722 2°55.719 9.4673 2.731078 23.498943 -2.871232
2007-03-19 08:27:41 51°13.724 2°55.719 9.4736 2.767678 23.848731 -2.871232
2007-03-19 08:27:46 51°13.726 2°55.719 9.4779 2.799318 24.150841 -2.871232
2007-03-19 08:27:51 51°13.729 2°55.72 9.4773 2.824032 24.386311 -2.871232
2007-03-19 08:27:56 51°13.731 2°55.719 9.4774 2.83975 24.537734 -2.871232
2007-03-19 08:28:01 51°13.734 2°55.719 9.4799 2.83975 24.537734 -2.871232
2007-03-19 08:28:06 51°13.737 2°55.717 9.476 2.845955 24.597426 -2.871232
2007-03-19 08:28:11 51°13.74 2°55.716 9.4701 2.844094 24.58163 -2.871232
2007-03-19 08:28:16 51°13.743 2°55.713 9.476 2.839233 24.534732 -2.871232
2007-03-19 08:28:21 51°13.746 2°55.71 9.4749 2.830443 24.449828 -2.871232
2007-03-19 08:28:26 51°13.749 2°55.706 9.4679 2.813174 24.285001 -2.871232
2007-03-19 08:28:31 51°13.753 2°55.702 9.4734 2.813174 24.285001 -2.871232
2007-03-19 08:28:36 51°13.757 2°55.697 9.4723 2.79601 24.121935 -2.871232
2007-03-19 08:28:41 51°13.762 2°55.692 9.4718 2.780293 23.974616 -2.871232
2007-03-19 08:28:46 51°13.766 2°55.686 9.4692 2.770057 23.879366 -2.871232
2007-03-19 08:28:51 51°13.772 2°55.681 9.471 2.771297 23.891136 -2.871232
2007-03-19 08:28:56 51°13.777 2°55.675 9.4638 2.772435 23.902549 -2.871232
2007-03-19 08:29:01 51°13.783 2°55.668 9.4663 2.772435 23.902549 -2.871232
2007-03-19 08:29:06 51°13.79 2°55.662 9.47 2.777191 23.948302 -2.871232
2007-03-19 08:29:11 51°13.797 2°55.656 9.4801 2.786393 24.035648 -2.871232
2007-03-19 08:29:16 51°13.805 2°55.649 9.4789 2.796423 24.130892 -2.871232
2007-03-19 08:29:21 51°13.812 2°55.643 9.475 2.790633 24.076528 -2.871232
2007-03-19 08:29:26 51°13.821 2°55.637 9.4731 2.76923 23.874008 -2.871232
2007-03-19 08:29:31 51°13.83 2°55.63 9.4845 2.76923 23.874008 -2.871232
2007-03-19 08:29:36 51°13.839 2°55.623 9.4957 2.751653 23.70857 -2.871232
2007-03-19 08:29:41 51°13.849 2°55.617 9.4841 2.750929 23.699857 -2.871232
2007-03-19 08:29:46 51°13.858 2°55.61 9.484 2.761682 23.799938 -2.871232
2007-03-19 08:29:51 51°13.869 2°55.603 9.4879 2.770884 23.88659 -2.871232
2007-03-19 08:29:56 51°13.879 2°55.596 9.4911 2.772435 23.901926 -2.871232
2007-03-19 08:30:01 51°13.89 2°55.588 9.4859 2.772435 23.901926 -2.871232
2007-03-19 08:30:06 51°13.901 2°55.581 9.4765 2.774916 23.922976 -2.871232
2007-03-19 08:30:11 51°13.912 2°55.572 9.4841 2.778638 23.955796 -2.871232
2007-03-19 08:30:16 51°13.923 2°55.564 9.4928 2.78081 23.976399 -2.871232
2007-03-19 08:30:21 51°13.934 2°55.556 9.4784 2.784532 24.011097 -2.871232
2007-03-19 08:30:26 51°13.946 2°55.549 9.4664 2.784325 24.007883 -2.871232
2007-03-19 08:30:31 51°13.957 2°55.541 9.4554 2.784325 24.007883 -2.871232
2007-03-19 08:30:36 51°13.969 2°55.533 9.4486 2.782154 23.987904 -2.871232
2007-03-19 08:30:41 51°13.98 2°55.526 9.4314 2.777294 23.944291 -2.871232
2007-03-19 08:30:46 51°13.992 2°55.518 9.4197 2.779983 23.96855 -2.871232
2007-03-19 08:30:51 51°14.004 2°55.51 9.4161 2.788461 24.050268 -2.871232
2007-03-19 08:30:56 51°14.016 2°55.502 9.4256 2.789599 24.066082 -2.871232
2007-03-19 08:31:01 51°14.028 2°55.494 9.4363 2.789599 24.066082 -2.871232
2007-03-19 08:31:06 51°14.04 2°55.486 9.413 2.788255 24.060843 -2.871232
2007-03-19 08:31:11 51°14.051 2°55.478 9.4146 2.790736 24.090694 -2.871232
2007-03-19 08:31:16 51°14.063 2°55.47 9.4194 2.799526 24.183047 -2.871232
2007-03-19 08:31:21 51°14.075 2°55.461 9.4283 2.808005 24.271286 -2.871232
2007-03-19 08:31:26 51°14.086 2°55.453 9.4246 2.807591 24.270518 -2.871232
2007-03-19 08:31:31 51°14.098 2°55.445 9.4308 2.807591 24.270518 -2.871232
2007-03-19 08:31:36 51°14.109 2°55.436 9.4481 2.807178 24.267215 -2.871232
2007-03-19 08:31:41 51°14.121 2°55.428 9.4514 2.803145 24.232635 -2.871232
2007-03-19 08:31:46 51°14.132 2°55.419 9.4535 2.793425 24.14142 -2.871232
2007-03-19 08:31:51 51°14.143 2°55.41 9.4398 2.782155 24.03173 -2.871232
2007-03-19 08:31:56 51°14.154 2°55.4 9.4209 2.770988 23.924353 -2.871232
2007-03-19 08:32:01 51°14.164 2°55.39 9.4065 2.770988 23.924353 -2.871232
2007-03-19 08:32:06 51°14.175 2°55.38 9.3886 2.761786 23.834457 -2.871232
2007-03-19 08:32:11 51°14.184 2°55.368 9.3813 2.752687 23.742503 -2.871232
2007-03-19 08:32:16 51°14.194 2°55.357 9.373 2.73966 23.614611 -2.871232
2007-03-19 08:32:21 51°14.204 2°55.346 9.3585 2.724358 23.47142 -2.871232
2007-03-19 08:32:26 51°14.214 2°55.334 9.3587 2.711022 23.351792 -2.871232
2007-03-19 08:32:31 51°14.223 2°55.322 9.3456 2.711022 23.351792 -2.871232
2007-03-19 08:32:36 51°14.232 2°55.309 9.3346 2.697789 23.233765 -2.871232
2007-03-19 08:32:41 51°14.242 2°55.297 9.3233 2.680939 23.084514 -2.871232
2007-03-19 08:32:46 51°14.251 2°55.283 9.3054 2.65613 22.858773 -2.871232
2007-03-19 08:32:51 51°14.26 2°55.269 9.2947 2.620675 22.531387 -2.871232
2007-03-19 08:32:56 51°14.268 2°55.255 9.2966 2.586567 22.216476 -2.871232
2007-03-19 08:33:01 51°14.277 2°55.24 9.2801 2.586567 22.216476 -2.871232
2007-03-19 08:33:06 51°14.285 2°55.225 9.2826 2.549464 21.873702 -2.871232
2007-03-19 08:33:11 51°14.293 2°55.209 9.2707 2.522698 21.62858 -2.871232
2007-03-19 08:33:16 51°14.302 2°55.193 9.2726 2.507611 21.495682 -2.871232
2007-03-19 08:33:21 51°14.31 2°55.177 9.2686 2.503994 21.470093 -2.871232
2007-03-19 08:33:26 51°14.319 2°55.161 9.2567 2.502444 21.462253 -2.871232
2007-03-19 08:33:31 51°14.327 2°55.144 9.2667 2.502444 21.462253 -2.871232
2007-03-19 08:33:36 51°14.336 2°55.127 9.2654 2.496038 21.409265 -2.871232
2007-03-19 08:33:41 51°14.345 2°55.11 9.2602 2.487771 21.336525 -2.871232
2007-03-19 08:33:46 51°14.354 2°55.092 9.2828 2.471445 21.188543 -2.871232
2007-03-19 08:33:51 51°14.362 2°55.074 9.2755 2.453879 21.026759 -2.871232
2007-03-19 08:33:56 51°14.371 2°55.056 9.2623 2.439931 20.900675 -2.871232
2007-03-19 08:34:01 51°14.38 2°55.038 9.2892 2.439931 20.900675 -2.871232
2007-03-19 08:34:06 51°14.388 2°55.02 9.2718 2.440447 20.906623 -2.871232
2007-03-19 08:34:11 51°14.396 2°55.001 9.2832 2.449126 20.988157 -2.871232
2007-03-19 08:34:16 51°14.404 2°54.982 9.2937 2.471548 21.19729 -2.871232
2007-03-19 08:34:21 51°14.412 2°54.963 9.3054 2.503375 21.492948 -2.871232
2007-03-19 08:34:26 51°14.42 2°54.944 9.2729 2.538717 21.826144 -2.871232
2007-03-19 08:34:31 51°14.428 2°54.924 9.2485 2.538717 21.826144 -2.871232
2007-03-19 08:34:36 51°14.436 2°54.904 9.2534 2.576646 22.183213 -2.871232
2007-03-19 08:34:41 51°14.443 2°54.884 9.2178 2.615611 22.55014 -2.871232
2007-03-19 08:34:46 51°14.449 2°54.862 9.2057 2.656441 22.932995 -2.871232
2007-03-19 08:34:51 51°14.455 2°54.84 9.2072 2.700789 23.350533 -2.871232
2007-03-19 08:34:56 51°14.458 2°54.817 9.1993 2.758789 23.905813 -2.871232
2007-03-19 08:35:01 51°14.46 2°54.794 9.2059 2.758789 23.905813 -2.871232
2007-03-19 08:35:06 51°14.46 2°54.77 9.2255 2.818967 24.49324 -2.871232
2007-03-19 08:35:11 51°14.459 2°54.746 9.2098 2.886083 25.148208 -2.871232
2007-03-19 08:35:16 51°14.456 2°54.723 9.2558 2.959415 25.867097 -2.871232
2007-03-19 08:35:21 51°14.454 2°54.699 9.2677 3.012275 26.384894 -2.871232
2007-03-19 08:35:26 51°14.45 2°54.674 9.2317 3.0878 27.125456 -2.871232
2007-03-19 08:35:31 51°14.447 2°54.65 9.2878 3.0878 27.125456 -2.871232
2007-03-19 08:35:36 51°14.442 2°54.626 9.2488 3.138916 27.622008 -2.871232
2007-03-19 08:35:41 51°14.439 2°54.602 9.3232 3.196454 28.176401 -2.871232
2007-03-19 08:35:46 51°14.435 2°54.577 9.3049 3.25193 28.714125 -2.871232
2007-03-19 08:35:51 51°14.43 2°54.552 9.3016 3.311449 29.28574 -2.871232
2007-03-19 08:35:56 51°14.423 2°54.527 9.2305 3.358656 29.740773 -2.871232
2007-03-19 08:36:01 51°14.417 2°54.502 9.2242 3.358656 29.740773 -2.871232
2007-03-19 08:36:06 51°14.41 2°54.477 9.2273 3.397792 30.112457 -2.871232
2007-03-19 08:36:11 51°14.403 2°54.452 9.2299 3.428026 30.403326 -2.871232
2007-03-19 08:36:16 51°14.396 2°54.428 9.2336 3.449357 30.599572 -2.871232
2007-03-19 08:36:21 51°14.387 2°54.404 9.226 3.480216 30.891296 -2.871232
2007-03-19 08:36:26 51°14.378 2°54.38 9.2058 3.505589 31.159378 -2.871232
2007-03-19 08:36:31 51°14.37 2°54.356 9.2093 3.505589 31.159378 -2.871232
2007-03-19 08:36:36 51°14.361 2°54.332 9.2292 3.522367 31.343118 -2.871232
2007-03-19 08:36:41 51°14.351 2°54.308 9.2216 3.532103 31.450912 -2.871232
2007-03-19 08:36:46 51°14.343 2°54.282 9.206 3.542149 31.558581 -2.871232
2007-03-19 08:36:51 51°14.334 2°54.259 9.2384 3.552921 31.671032 -2.871232
2007-03-19 08:36:56 51°14.325 2°54.234 9.209 3.555407 31.700656 -2.871232
2007-03-19 08:37:01 51°14.316 2°54.21 9.2051 3.555407 31.700656 -2.871232
2007-03-19 08:37:06 51°14.308 2°54.185 9.2054 3.565661 31.808943 -2.871232
2007-03-19 08:37:11 51°14.298 2°54.161 9.1999 3.561518 31.76621 -2.871232
2007-03-19 08:37:16 51°14.29 2°54.135 9.2092 3.563797 31.789628 -2.871232
2007-03-19 08:37:21 51°14.281 2°54.111 9.2215 3.565765 31.807456 -2.871232
2007-03-19 08:37:26 51°14.273 2°54.086 9.2 3.564315 31.793086 -2.871232
2007-03-19 08:37:31 51°14.264 2°54.061 9.1991 3.564315 31.793086 -2.871232
2007-03-19 08:37:36 51°14.255 2°54.036 9.1894 3.570219 31.854117 -2.871232
2007-03-19 08:37:41 51°14.247 2°54.011 9.1917 3.582545 31.981395 -2.871232
2007-03-19 08:37:46 51°14.237 2°53.987 9.1992 3.584824 32.004002 -2.871232
2007-03-19 08:37:51 51°14.229 2°53.961 9.1961 3.587931 32.03399 -2.871232
2007-03-19 08:37:56 51°14.22 2°53.936 9.2003 3.591764 32.074556 -2.871232
2007-03-19 08:38:01 51°14.211 2°53.911 9.1934 3.591764 32.074556 -2.871232
2007-03-19 08:38:06 51°14.203 2°53.886 9.201 3.593939 32.100375 -2.871232
2007-03-19 08:38:11 51°14.194 2°53.861 9.2083 3.597772 32.144354 -2.871232
2007-03-19 08:38:16 51°14.185 2°53.835 9.1962 3.596529 32.131163 -2.871232
2007-03-19 08:38:21 51°14.176 2°53.811 9.1985 3.596943 32.135278 -2.871232
2007-03-19 08:38:26 51°14.167 2°53.785 9.2029 3.59829 32.147802 -2.871232
2007-03-19 08:38:31 51°14.158 2°53.76 9.21 3.59829 32.147802 -2.871232
2007-03-19 08:38:36 51°14.148 2°53.736 9.2068 3.599015 32.156698 -2.871232
2007-03-19 08:38:41 51°14.139 2°53.711 9.2178 3.600051 32.164442 -2.871232
2007-03-19 08:38:46 51°14.129 2°53.686 9.1992 3.600673 32.171462 -2.871232
2007-03-19 08:38:52 51°14.118 2°53.656 9.2148 3.603469 32.200937 -2.871232
2007-03-19 08:38:55 51°14.113 2°53.641 9.2159 3.603987 32.206081 -2.871232
2007-03-19 08:39:02 51°14.1 2°53.606 9.2176 3.603987 32.206081 -2.871232
2007-03-19 08:39:07 51°14.091 2°53.58 9.2151 3.603262 32.196333 -2.871232
2007-03-19 08:39:11 51°14.084 2°53.56 9.1992 3.600569 32.161956 -2.871232
2007-03-19 08:39:17 51°14.072 2°53.53 9.2031 3.602744 32.181859 -2.871232
2007-03-19 08:39:22 51°14.064 2°53.505 9.2143 3.603262 32.187849 -2.871232
2007-03-19 08:39:26 51°14.056 2°53.486 9.2234 3.602848 32.182039 -2.871232
2007-03-19 08:39:31 51°14.047 2°53.46 9.2269 3.602848 32.182039 -2.871232
2007-03-19 08:39:36 51°14.038 2°53.434 9.2369 3.602951 32.18222 -2.871232
2007-03-19 08:39:42 51°14.027 2°53.405 9.2395 3.605023 32.201093 -2.871232
2007-03-19 08:39:46 51°14.019 2°53.384 9.2265 3.604091 32.196078 -2.871232
2007-03-19 08:39:51 51°14.01 2°53.36 9.2241 3.603676 32.191964 -2.871232
2007-03-19 08:39:56 51°14.001 2°53.334 9.2383 3.604298 32.19559 -2.871232
2007-03-19 08:40:02 51°13.99 2°53.304 9.2361 3.604298 32.19559 -2.871232
2007-03-19 08:40:07 51°13.981 2°53.278 9.2448 3.603262 32.181066 -2.871232
2007-03-19 08:40:11 51°13.974 2°53.259 9.232 3.603469 32.179732 -2.871232
2007-03-19 08:40:16 51°13.965 2°53.234 9.2255 3.603573 32.178217 -2.871232
2007-03-19 08:40:22 51°13.954 2°53.204 9.2363 3.602537 32.166242 -2.871232
2007-03-19 08:40:27 51°13.944 2°53.179 9.2238 3.602537 32.1637 -2.871232
2007-03-19 08:40:32 51°13.936 2°53.154 9.2231 3.602537 32.1637 -2.871232
2007-03-19 08:40:36 51°13.928 2°53.135 9.2157 3.602226 32.153842 -2.871232
2007-03-19 08:40:42 51°13.916 2°53.105 9.2154 3.601915 32.147374 -2.871232
2007-03-19 08:40:46 51°13.909 2°53.085 9.2496 3.60378 32.169259 -2.871232
2007-03-19 08:40:51 51°13.901 2°53.06 9.2228 3.604816 32.182079 -2.871232
2007-03-19 08:40:56 51°13.891 2°53.035 9.2237 3.604919 32.186497 -2.871232
2007-03-19 08:41:02 51°13.88 2°53.004 9.2218 3.604919 32.186497 -2.871232
2007-03-19 08:41:06 51°13.873 2°52.984 9.2299 3.604505 32.186623 -2.871232
2007-03-19 08:41:12 51°13.862 2°52.954 9.2341 3.60637 32.208524 -2.871232
2007-03-19 08:41:16 51°13.854 2°52.934 9.2285 3.60523 32.194668 -2.871232
2007-03-19 08:41:22 51°13.843 2°52.904 9.2285 3.604712 32.187832 -2.871232
2007-03-19 08:41:26 51°13.836 2°52.884 9.2244 3.604712 32.186984 -2.871232
2007-03-19 08:41:32 51°13.824 2°52.853 9.2273 3.604712 32.186984 -2.871232
2007-03-19 08:41:37 51°13.816 2°52.827 9.2404 3.604194 32.180996 -2.871232
2007-03-19 08:41:42 51°13.806 2°52.803 9.2377 3.606887 32.207727 -2.871232
2007-03-19 08:41:46 51°13.8 2°52.782 9.2401 3.607509 32.2122 -2.871232
2007-03-19 08:41:51 51°13.79 2°52.757 9.2274 3.60782 32.216133 -2.871232
2007-03-19 08:41:57 51°13.78 2°52.725 9.2358 3.610099 32.240453 -2.871232
2007-03-19 08:42:02 51°13.77 2°52.701 9.2398 3.610099 32.240453 -2.871232
2007-03-19 08:42:07 51°13.761 2°52.675 9.2264 3.60927 32.233075 -2.871232
2007-03-19 08:42:11 51°13.753 2°52.656 9.2284 3.609063 32.228472 -2.871232
2007-03-19 08:42:16 51°13.744 2°52.63 9.2357 3.60668 32.202279 -2.871232
2007-03-19 08:42:22 51°13.734 2°52.599 9.2408 3.606369 32.198347 -2.871232
2007-03-19 08:42:27 51°13.724 2°52.575 9.242 3.608648 32.22351 -2.871232
2007-03-19 08:42:32 51°13.715 2°52.55 9.2421 3.608648 32.22351 -2.871232
2007-03-19 08:42:36 51°13.707 2°52.529 9.2386 3.608545 32.22333 -2.871232
2007-03-19 08:42:42 51°13.696 2°52.499 9.2394 3.611653 32.255879 -2.871232
2007-03-19 08:42:47 51°13.687 2°52.474 9.2451 3.612896 32.268221 -2.871232
2007-03-19 08:42:51 51°13.68 2°52.453 9.2277 3.612999 32.2667 -2.871232
2007-03-19 08:42:56 51°13.671 2°52.428 9.2295 3.612792 32.260395 -2.871232
2007-03-19 08:43:02 51°13.659 2°52.398 9.2281 3.612792 32.260395 -2.871232
2007-03-19 08:43:07 51°13.651 2°52.372 9.2313 3.613517 32.265044 -2.871232
2007-03-19 08:43:12 51°13.641 2°52.347 9.2371 3.614242 32.271393 -2.871232
2007-03-19 08:43:16 51°13.634 2°52.326 9.23 3.614864 32.277562 -2.871232
2007-03-19 08:43:22 51°13.623 2°52.296 9.2286 3.615796 32.288517 -2.871232
2007-03-19 08:43:26 51°13.616 2°52.276 9.2386 3.616521 32.300819 -2.871232
2007-03-19 08:43:32 51°13.604 2°52.247 9.2428 3.616521 32.300819 -2.871232
2007-03-19 08:43:37 51°13.594 2°52.223 9.2367 3.616728 32.304577 -2.871232
2007-03-19 08:43:42 51°13.585 2°52.198 9.2259 3.61621 32.299434 -2.871232
2007-03-19 08:43:46 51°13.578 2°52.178 9.2272 3.616418 32.300641 -2.871232
2007-03-19 08:43:52 51°13.567 2°52.148 9.2271 3.616418 32.29979 -2.871232
2007-03-19 08:43:57 51°13.558 2°52.122 9.224 3.616625 32.298445 -2.871232
2007-03-19 08:44:02 51°13.549 2°52.098 9.2364 3.616625 32.298445 -2.871232
2007-03-19 08:44:06 51°13.542 2°52.078 9.2441 3.616314 32.291108 -2.871232
2007-03-19 08:44:11 51°13.533 2°52.053 9.2312 3.618075 32.311993 -2.871232
2007-03-19 08:44:16 51°13.523 2°52.028 9.2283 3.619215 32.327563 -2.871232
2007-03-19 08:44:22 51°13.512 2°51.998 9.2381 3.61994 32.337319 -2.871232
2007-03-19 08:44:27 51°13.503 2°51.973 9.2259 3.620354 32.343138 -2.871232
2007-03-19 08:44:31 51°13.496 2°51.953 9.2238 3.620354 32.343138 -2.871232
2007-03-19 08:44:36 51°13.487 2°51.928 9.2343 3.619629 32.332529 -2.871232
2007-03-19 08:44:42 51°13.476 2°51.897 9.2273 3.619732 32.331855 -2.871232
2007-03-19 08:44:47 51°13.466 2°51.872 9.2313 3.620768 32.343846 -2.871232
2007-03-19 08:44:51 51°13.458 2°51.852 9.2252 3.62139 32.350019 -2.871232
2007-03-19 08:44:56 51°13.45 2°51.827 9.2213 3.622322 32.360983 -2.871232
2007-03-19 08:45:02 51°13.439 2°51.797 9.233 3.622322 32.360983 -2.871232
2007-03-19 08:45:07 51°13.43 2°51.771 9.2214 3.622944 32.367157 -2.871232
2007-03-19 08:45:11 51°13.421 2°51.751 9.2187 3.623151 32.369214 -2.871232
2007-03-19 08:45:16 51°13.413 2°51.725 9.2165 3.623876 32.376417 -2.871232
2007-03-19 08:45:22 51°13.401 2°51.696 9.2321 3.624291 32.380533 -2.871232
2007-03-19 08:45:27 51°13.393 2°51.671 9.2218 3.624912 32.386708 -2.871232
2007-03-19 08:45:32 51°13.383 2°51.646 9.2227 3.624912 32.386708 -2.871232
2007-03-19 08:45:36 51°13.376 2°51.626 9.2301 3.62543 32.393559 -2.871232
2007-03-19 08:45:42 51°13.364 2°51.597 9.229 3.626362 32.405382 -2.871232
2007-03-19 08:45:46 51°13.358 2°51.576 9.2317 3.627502 32.418412 -2.871232
2007-03-19 08:45:52 51°13.346 2°51.547 9.2268 3.627295 32.414646 -2.871232
2007-03-19 08:45:57 51°13.337 2°51.522 9.2338 3.628745 32.429056 -2.871232
2007-03-19 08:46:02 51°13.328 2°51.497 9.219 3.628745 32.429056 -2.871232
2007-03-19 08:46:06 51°13.321 2°51.477 9.2174 3.62947 32.437116 -2.871232
2007-03-19 08:46:11 51°13.311 2°51.452 9.2137 3.630195 32.442613 -2.871232
2007-03-19 08:46:17 51°13.3 2°51.422 9.2321 3.630713 32.446906 -2.871232
2007-03-19 08:46:22 51°13.291 2°51.397 9.2274 3.631542 32.455141 -2.871232
2007-03-19 08:46:27 51°13.282 2°51.371 9.2456 3.631957 32.459259 -2.871232
2007-03-19 08:46:31 51°13.274 2°51.352 9.2447 3.631957 32.459259 -2.871232
2007-03-19 08:46:37 51°13.263 2°51.321 9.2337 3.632992 32.47212 -2.871232
2007-03-19 08:46:42 51°13.254 2°51.297 9.229 3.634028 32.484983 -2.871232
2007-03-19 08:46:47 51°13.245 2°51.272 9.2235 3.634028 32.484983 -2.871232
2007-03-19 08:46:51 51°13.237 2°51.252 9.2327 3.633718 32.477616 -2.871232
2007-03-19 08:46:56 51°13.228 2°51.227 9.2313 3.633407 32.471961 -2.871232
2007-03-19 08:47:02 51°13.217 2°51.197 9.2502 3.633407 32.471961 -2.871232
2007-03-19 08:47:07 51°13.208 2°51.172 9.2367 3.633407 32.46854 -2.871232
2007-03-19 08:47:11 51°13.201 2°51.153 9.2305 3.634546 32.481575 -2.871232
2007-03-19 08:47:16 51°13.192 2°51.127 9.2225 3.635375 32.492378 -2.871232
2007-03-19 08:47:22 51°13.181 2°51.097 9.2305 3.635997 32.499412 -2.871232
2007-03-19 08:47:27 51°13.17 2°51.074 9.233 3.635789 32.496496 -2.871232
2007-03-19 08:47:32 51°13.163 2°51.048 9.2581 3.635789 32.496496 -2.871232
2007-03-19 08:47:36 51°13.155 2°51.029 9.2421 3.635375 32.488955 -2.871232
2007-03-19 08:47:42 51°13.144 2°50.998 9.2421 3.636204 32.496335 -2.871232
2007-03-19 08:47:46 51°13.137 2°50.979 9.241 3.637551 32.513144 -2.871232
2007-03-19 08:47:52 51°13.126 2°50.949 9.2436 3.637965 32.518976 -2.871232
2007-03-19 08:47:57 51°13.117 2°50.924 9.2438 3.637758 32.514347 -2.871232
2007-03-19 08:48:02 51°13.107 2°50.9 9.2393 3.637758 32.514347 -2.871232
2007-03-19 08:48:06 51°13.101 2°50.879 9.2464 3.637447 32.506977 -2.871232
2007-03-19 08:48:12 51°13.089 2°50.85 9.2448 3.63755 32.504582 -2.871232
2007-03-19 08:48:17 51°13.081 2°50.825 9.2468 3.637861 32.506815 -2.871232
2007-03-19 08:48:22 51°13.071 2°50.801 9.2501 3.637965 32.506988 -2.871232
2007-03-19 08:48:27 51°13.063 2°50.775 9.2464 3.638483 32.510423 -2.871232
2007-03-19 08:48:31 51°13.056 2°50.756 9.2452 3.638483 32.510423 -2.871232
2007-03-19 08:48:36 51°13.047 2°50.731 9.2425 3.639208 32.518484 -2.871232
2007-03-19 08:48:42 51°13.036 2°50.701 9.2364 3.638897 32.51454 -2.871232
2007-03-19 08:48:47 51°13.027 2°50.677 9.2365 3.638794 32.511799 -2.871232
2007-03-19 08:48:51 51°13.02 2°50.656 9.2369 3.638897 32.511116 -2.871232
2007-03-19 08:48:57 51°13.009 2°50.627 9.2416 3.639208 32.514204 -2.871232
2007-03-19 08:49:02 51°13 2°50.602 9.2494 3.639208 32.514204 -2.871232
2007-03-19 08:49:07 51°12.991 2°50.577 9.2576 3.639622 32.521746 -2.871232
2007-03-19 08:49:11 51°12.983 2°50.558 9.2459 3.640037 32.527576 -2.871232
2007-03-19 08:49:16 51°12.974 2°50.533 9.2397 3.640348 32.532378 -2.871232
2007-03-19 08:49:22 51°12.963 2°50.503 9.2532 3.640555 32.537007 -2.871232
2007-03-19 08:49:27 51°12.954 2°50.479 9.2407 3.640555 32.53615 -2.871232
2007-03-19 08:49:31 51°12.947 2°50.459 9.2411 3.640555 32.53615 -2.871232
2007-03-19 08:49:36 51°12.937 2°50.435 9.2433 3.64014 32.527749 -2.871232
2007-03-19 08:49:41 51°12.928 2°50.411 9.2522 3.638483 32.507855 -2.871232
2007-03-19 08:49:47 51°12.917 2°50.381 9.2525 3.640658 32.530327 -2.871232
2007-03-19 08:49:52 51°12.909 2°50.357 9.2528 3.640658 32.531183 -2.871232
2007-03-19 08:49:56 51°12.901 2°50.337 9.2513 3.640451 32.528268 -2.871232
2007-03-19 08:50:02 51°12.891 2°50.307 9.2427 3.640451 32.528268 -2.871232
2007-03-19 08:50:06 51°12.884 2°50.287 9.2374 3.640969 32.534271 -2.871232
2007-03-19 08:50:12 51°12.873 2°50.258 9.2387 3.638379 32.508537 -2.871232
2007-03-19 08:50:17 51°12.864 2°50.233 9.2503 3.638483 32.506143 -2.871232
2007-03-19 08:50:22 51°12.855 2°50.209 9.2412 3.638897 32.508549 -2.871232
2007-03-19 08:50:26 51°12.848 2°50.189 9.2404 3.638586 32.506317 -2.871232
2007-03-19 08:50:32 51°12.836 2°50.16 9.2368 3.638586 32.506317 -2.871232
2007-03-19 08:50:36 51°12.83 2°50.139 9.2545 3.637654 32.501333 -2.871232
2007-03-19 08:50:42 51°12.819 2°50.11 9.255 3.638379 32.511105 -2.871232
2007-03-19 08:50:47 51°12.81 2°50.085 9.2679 3.638068 32.508873 -2.871232
2007-03-19 08:50:51 51°12.804 2°50.065 9.2517 3.635789 32.484517 -2.871232
2007-03-19 08:50:57 51°12.793 2°50.036 9.252 3.636929 32.498406 -2.871232
2007-03-19 08:51:02 51°12.784 2°50.011 9.2507 3.636929 32.498406 -2.871232
2007-03-19 08:51:07 51°12.776 2°49.986 9.2403 3.635893 32.488113 -2.871232
2007-03-19 08:51:11 51°12.768 2°49.966 9.2461 3.635789 32.482807 -2.871232
2007-03-19 08:51:16 51°12.76 2°49.941 9.2418 3.638586 32.506317 -2.871232
2007-03-19 08:51:22 51°12.749 2°49.911 9.2483 3.63724 32.490372 -2.871232
2007-03-19 08:51:27 51°12.74 2°49.886 9.2479 3.637343 32.491401 -2.871232
2007-03-19 08:51:31 51°12.733 2°49.866 9.2527 3.637343 32.491401 -2.871232
2007-03-19 08:51:36 51°12.724 2°49.842 9.2425 3.638794 32.507519 -2.871232
2007-03-19 08:51:42 51°12.714 2°49.813 9.2524 3.640555 32.530154 -2.871232
2007-03-19 08:51:47 51°12.705 2°49.788 9.2513 3.638794 32.513511 -2.871232
2007-03-19 08:51:52 51°12.696 2°49.764 9.2525 3.64014 32.526893 -2.871232
2007-03-19 08:51:56 51°12.689 2°49.744 9.2491 3.638483 32.508711 -2.871232
2007-03-19 08:52:02 51°12.679 2°49.714 9.2439 3.638483 32.508711 -2.871232
2007-03-19 08:52:07 51°12.67 2°49.69 9.2531 3.640969 32.533415 -2.871232
2007-03-19 08:52:12 51°12.661 2°49.665 9.2501 3.640658 32.530327 -2.871232
2007-03-19 08:52:17 51°12.653 2°49.64 9.2526 3.640037 32.523294 -2.871232
2007-03-19 08:52:22 51°12.644 2°49.616 9.2487 3.639415 32.51455 -2.871232
2007-03-19 08:52:27 51°12.635 2°49.591 9.2578 3.640037 32.51987 -2.871232
2007-03-19 08:52:32 51°12.626 2°49.566 9.2531 3.640037 32.51987 -2.871232
2007-03-19 08:52:36 51°12.619 2°49.546 9.2621 3.638172 32.503056 -2.871232
2007-03-19 08:52:42 51°12.609 2°49.517 9.2604 3.639519 32.516436 -2.871232
2007-03-19 08:52:47 51°12.6 2°49.492 9.255 3.637447 32.495852 -2.871232
2007-03-19 08:52:51 51°12.592 2°49.473 9.2455 3.640969 32.530845 -2.871232
2007-03-19 08:52:57 51°12.583 2°49.442 9.252 3.639829 32.519523 -2.871232
2007-03-19 08:53:02 51°12.573 2°49.417 9.2536 3.639829 32.519523 -2.871232
2007-03-19 08:53:07 51°12.564 2°49.393 9.2456 3.638794 32.508375 -2.871232
2007-03-19 08:53:11 51°12.557 2°49.373 9.2572 3.640347 32.522101 -2.871232
2007-03-19 08:53:17 51°12.546 2°49.343 9.2655 3.638483 32.501865 -2.871232
2007-03-19 08:53:22 51°12.537 2°49.319 9.2505 3.644077 32.560012 -2.871232
2007-03-19 08:53:26 51°12.53 2°49.299 9.2518 3.644181 32.562756 -2.871232
2007-03-19 08:53:31 51°12.521 2°49.275 9.2582 3.644181 32.562756 -2.871232
2007-03-19 08:53:36 51°12.512 2°49.251 9.2587 3.644388 32.565673 -2.871232
2007-03-19 08:53:42 51°12.502 2°49.221 9.2649 3.643559 32.555723 -2.871232
2007-03-19 08:53:47 51°12.492 2°49.197 9.2614 3.643559 32.554008 -2.871232
2007-03-19 08:53:51 51°12.486 2°49.178 9.2733 3.643145 32.549034 -2.871232
2007-03-19 08:53:56 51°12.477 2°49.154 9.2764 3.643041 32.548862 -2.871232
2007-03-19 08:54:02 51°12.466 2°49.125 9.2753 3.643041 32.548862 -2.871232
2007-03-19 08:54:07 51°12.457 2°49.1 9.2737 3.642937 32.546119 -2.871232
2007-03-19 08:54:12 51°12.449 2°49.076 9.274 3.642419 32.538403 -2.871232
2007-03-19 08:54:16 51°12.442 2°49.056 9.2729 3.642005 32.531718 -2.871232
2007-03-19 08:54:22 51°12.431 2°49.026 9.2804 3.641694 32.525207 -2.871232
2007-03-19 08:54:27 51°12.423 2°49.002 9.2786 3.640969 32.514582 -2.871232
2007-03-19 08:54:32 51°12.415 2°48.978 9.2682 3.640969 32.514582 -2.871232
2007-03-19 08:54:36 51°12.409 2°48.957 9.2752 3.640451 32.506016 -2.871232
2007-03-19 08:54:42 51°12.399 2°48.927 9.2758 3.640554 32.507045 -2.871232
2007-03-19 08:54:46 51°12.392 2°48.907 9.27 3.640554 32.507045 -2.871232
2007-03-19 08:54:52 51°12.383 2°48.876 9.2675 3.640244 32.503104 -2.871232
2007-03-19 08:54:56 51°12.376 2°48.857 9.27 3.64014 32.49951 -2.871232
2007-03-19 08:55:02 51°12.366 2°48.826 9.2735 3.64014 32.49951 -2.871232
2007-03-19 08:55:07 51°12.357 2°48.801 9.2783 3.640658 32.506363 -2.871232
2007-03-19 08:55:11 51°12.351 2°48.78 9.275 3.640554 32.505335 -2.871232
2007-03-19 08:55:17 51°12.341 2°48.75 9.2774 3.640658 32.507219 -2.871232
2007-03-19 08:55:22 51°12.333 2°48.725 9.2752 3.640036 32.504467 -2.871232
2007-03-19 08:55:26 51°12.326 2°48.705 9.2742 3.640865 32.512697 -2.871232
2007-03-19 08:55:31 51°12.318 2°48.679 9.2732 3.640865 32.512697 -2.871232
2007-03-19 08:55:36 51°12.31 2°48.654 9.2744 3.640554 32.508756 -2.871232
2007-03-19 08:55:42 51°12.3 2°48.624 9.27 3.640554 32.5079 -2.871232
2007-03-19 08:55:47 51°12.292 2°48.599 9.2734 3.640554 32.50619 -2.871232
2007-03-19 08:55:51 51°12.285 2°48.579 9.2728 3.640451 32.504306 -2.871232
2007-03-19 08:55:56 51°12.277 2°48.554 9.2761 3.640865 32.508421 -2.871232
2007-03-19 08:56:02 51°12.267 2°48.524 9.2736 3.640865 32.508421 -2.871232
2007-03-19 08:56:07 51°12.259 2°48.498 9.2735 3.640762 32.508247 -2.871232
2007-03-19 08:56:12 51°12.25 2°48.473 9.2764 3.641176 32.512362 -2.871232
2007-03-19 08:56:16 51°12.244 2°48.453 9.2682 3.641176 32.513217 -2.871232
2007-03-19 08:56:22 51°12.234 2°48.423 9.2675 3.641072 32.512188 -2.871232
2007-03-19 08:56:27 51°12.226 2°48.397 9.2692 3.641072 32.510478 -2.871232
2007-03-19 08:56:32 51°12.219 2°48.371 9.2661 3.641072 32.510478 -2.871232
2007-03-19 08:56:36 51°12.213 2°48.35 9.2646 3.64128 32.512535 -2.871232
2007-03-19 08:56:42 51°12.205 2°48.319 9.2744 3.641176 32.513217 -2.871232
2007-03-19 08:56:46 51°12.199 2°48.298 9.2672 3.641176 32.514073 -2.871232
2007-03-19 08:56:52 51°12.191 2°48.267 9.2646 3.641694 32.520928 -2.871232
2007-03-19 08:56:56 51°12.186 2°48.246 9.2601 3.641901 32.523841 -2.871232
2007-03-19 08:57:02 51°12.177 2°48.214 9.2692 3.641901 32.523841 -2.871232
2007-03-19 08:57:07 51°12.171 2°48.188 9.2587 3.642212 32.528639 -2.871232
2007-03-19 08:57:11 51°12.165 2°48.167 9.2531 3.642419 32.531553 -2.871232
2007-03-19 08:57:17 51°12.157 2°48.135 9.255 3.641901 32.524697 -2.871232
2007-03-19 08:57:22 51°12.151 2°48.108 9.2509 3.642212 32.530351 -2.871232
2007-03-19 08:57:26 51°12.145 2°48.087 9.252 3.642108 32.531034 -2.871232
2007-03-19 08:57:31 51°12.138 2°48.061 9.2525 3.642108 32.531034 -2.871232
2007-03-19 08:57:37 51°12.132 2°48.029 9.2462 3.642212 32.531207 -2.871232
2007-03-19 08:57:42 51°12.125 2°48.002 9.2451 3.64273 32.538921 -2.871232
2007-03-19 08:57:47 51°12.121 2°47.975 9.2501 3.643144 32.546464 -2.871232
2007-03-19 08:57:51 51°12.117 2°47.953 9.2488 3.643145 32.549034 -2.871232
2007-03-19 08:57:56 51°12.112 2°47.926 9.2415 3.643663 32.556752 -2.871232
2007-03-19 08:58:02 51°12.106 2°47.893 9.2437 3.643663 32.556752 -2.871232
2007-03-19 08:58:07 51°12.102 2°47.866 9.2411 3.644077 32.562584 -2.871232
2007-03-19 08:58:12 51°12.097 2°47.84 9.2433 3.644491 32.56756 -2.871232
2007-03-19 08:58:16 51°12.093 2°47.818 9.2386 3.645113 32.575452 -2.871232
2007-03-19 08:58:22 51°12.087 2°47.786 9.2424 3.645424 32.578541 -2.871232
2007-03-19 08:58:27 51°12.083 2°47.76 9.2467 3.646149 32.588323 -2.871232
2007-03-19 08:58:32 51°12.078 2°47.734 9.2416 3.646149 32.588323 -2.871232
2007-03-19 08:58:36 51°12.074 2°47.712 9.2414 3.646356 32.592099 -2.871232
2007-03-19 08:58:42 51°12.068 2°47.681 9.2445 3.646563 32.595017 -2.871232
2007-03-19 08:58:47 51°12.063 2°47.654 9.2409 3.646874 32.598965 -2.871232
2007-03-19 08:58:51 51°12.059 2°47.632 9.2335 3.646978 32.599995 -2.871232
2007-03-19 08:58:56 51°12.055 2°47.605 9.2378 3.646978 32.599136 -2.871232
2007-03-19 08:59:02 51°12.05 2°47.573 9.2339 3.646978 32.599136 -2.871232
2007-03-19 08:59:06 51°12.047 2°47.551 9.2407 3.647392 32.603256 -2.871232
2007-03-19 08:59:12 51°12.041 2°47.518 9.2338 3.647496 32.605144 -2.871232
2007-03-19 08:59:16 51°12.039 2°47.496 9.2339 3.647185 32.602054 -2.871232
2007-03-19 08:59:22 51°12.033 2°47.464 9.2321 3.647599 32.60875 -2.871232
2007-03-19 08:59:26 51°12.03 2°47.442 9.243 3.647703 32.611498 -2.871232
2007-03-19 08:59:32 51°12.024 2°47.409 9.2304 3.647703 32.611498 -2.871232
2007-03-19 08:59:37 51°12.02 2°47.382 9.2329 3.647599 32.610468 -2.871232
2007-03-19 08:59:42 51°12.015 2°47.356 9.2365 3.647392 32.608408 -2.871232
2007-03-19 08:59:46 51°12.011 2°47.335 9.2381 3.647392 32.610126 -2.871232
2007-03-19 08:59:51 51°12.008 2°47.308 9.2352 3.647289 32.610814 -2.871232
2007-03-19 08:59:57 51°12.002 2°47.276 9.227 3.646978 32.606005 -2.871232
2007-03-19 09:00:02 51°11.997 2°47.249 9.2256 3.646978 32.606005 -2.871232
2007-03-19 09:00:07 51°11.993 2°47.222 9.2329 3.646874 32.605834 -2.871232
2007-03-19 09:00:11 51°11.989 2°47.201 9.2261 3.646771 32.604804 -2.871232
2007-03-19 09:00:17 51°11.984 2°47.168 9.2311 3.646563 32.602744 -2.871232
2007-03-19 09:00:22 51°11.98 2°47.142 9.2252 3.646356 32.601542 -2.871232
2007-03-19 09:00:27 51°11.975 2°47.115 9.226 3.646149 32.602059 -2.871232
2007-03-19 09:00:32 51°11.971 2°47.088 9.2217 3.646149 32.602059 -2.871232
2007-03-19 09:00:36 51°11.967 2°47.067 9.2273 3.646149 32.604635 -2.871232
2007-03-19 09:00:42 51°11.962 2°47.036 9.2265 3.645735 32.600514 -2.871232
2007-03-19 09:00:47 51°11.957 2°47.009 9.2233 3.645735 32.600514 -2.871232
2007-03-19 09:00:51 51°11.954 2°46.987 9.2234 3.645631 32.599484 -2.871232
2007-03-19 09:00:56 51°11.949 2°46.96 9.2216 3.645424 32.597424 -2.871232
2007-03-19 09:01:02 51°11.944 2°46.928 9.2164 3.645424 32.597424 -2.871232
2007-03-19 09:01:07 51°11.94 2°46.901 9.2235 3.645424 32.6 -2.871232
2007-03-19 09:01:12 51°11.936 2°46.874 9.2223 3.645424 32.600859 -2.871232
2007-03-19 09:01:16 51°11.931 2°46.853 9.2213 3.64532 32.599829 -2.871232
2007-03-19 09:01:22 51°11.925 2°46.821 9.2221 3.645217 32.599658 -2.871232
2007-03-19 09:01:27 51°11.921 2°46.794 9.2203 3.645217 32.601376 -2.871232
2007-03-19 09:01:32 51°11.916 2°46.767 9.2194 3.645217 32.601376 -2.871232
2007-03-19 09:01:37 51°11.912 2°46.741 9.2256 3.645217 32.603094 -2.871232
2007-03-19 09:01:42 51°11.907 2°46.714 9.2221 3.645113 32.602064 -2.871232
2007-03-19 09:01:46 51°11.904 2°46.693 9.2261 3.645113 32.602064 -2.871232
2007-03-19 09:01:52 51°11.898 2°46.661 9.2207 3.645113 32.602064 -2.871232
2007-03-19 09:01:57 51°11.894 2°46.634 9.2175 3.645113 32.602923 -2.871232
2007-03-19 09:02:02 51°11.889 2°46.607 9.2209 3.645113 32.602923 -2.871232
2007-03-19 09:02:07 51°11.885 2°46.579 9.2233 3.645113 32.602923 -2.871232
2007-03-19 09:02:11 51°11.881 2°46.558 9.2225 3.64501 32.601033 -2.871232
2007-03-19 09:02:17 51°11.875 2°46.525 9.2192 3.644906 32.600003 -2.871232
2007-03-19 09:02:22 51°11.871 2°46.498 9.2254 3.644906 32.600003 -2.871232
2007-03-19 09:02:27 51°11.866 2°46.47 9.2182 3.645113 32.603782 -2.871232
2007-03-19 09:02:31 51°11.863 2°46.449 9.2245 3.645113 32.603782 -2.871232
2007-03-19 09:02:37 51°11.858 2°46.416 9.2231 3.64501 32.602751 -2.871232
2007-03-19 09:02:42 51°11.853 2°46.389 9.2242 3.64501 32.601892 -2.871232
2007-03-19 09:02:47 51°11.849 2°46.361 9.2213 3.64501 32.601892 -2.871232
2007-03-19 09:02:51 51°11.845 2°46.34 9.2233 3.64501 32.601892 -2.871232
2007-03-19 09:02:56 51°11.841 2°46.313 9.2272 3.645113 32.602923 -2.871232
2007-03-19 09:03:01 51°11.836 2°46.286 9.2271 3.645113 32.602923 -2.871232
2007-03-19 09:03:07 51°11.831 2°46.253 9.2261 3.645217 32.603094 -2.871232
2007-03-19 09:03:11 51°11.828 2°46.232 9.2255 3.64532 32.603265 -2.871232
2007-03-19 09:03:16 51°11.823 2°46.205 9.2247 3.645217 32.601376 -2.871232
2007-03-19 09:03:22 51°11.818 2°46.172 9.2274 3.645528 32.605326 -2.871232
2007-03-19 09:03:27 51°11.814 2°46.145 9.2253 3.645631 32.606357 -2.871232
2007-03-19 09:03:32 51°11.81 2°46.117 9.2251 3.645631 32.606357 -2.871232
2007-03-19 09:03:36 51°11.807 2°46.096 9.2267 3.645838 32.607558 -2.871232
2007-03-19 09:03:42 51°11.802 2°46.062 9.2298 3.645838 32.606699 -2.871232
2007-03-19 09:03:47 51°11.8 2°46.035 9.2278 3.645838 32.606699 -2.871232
2007-03-19 09:03:52 51°11.795 2°46.008 9.226 3.645942 32.60773 -2.871232
2007-03-19 09:03:57 51°11.792 2°45.98 9.2243 3.646046 32.60876 -2.871232
2007-03-19 09:04:02 51°11.788 2°45.953 9.2257 3.646046 32.60876 -2.871232
2007-03-19 09:04:06 51°11.786 2°45.93 9.2249 3.646253 32.610821 -2.871232
2007-03-19 09:04:12 51°11.781 2°45.898 9.2251 3.646253 32.610821 -2.871232
2007-03-19 09:04:17 51°11.777 2°45.871 9.2257 3.64646 32.612022 -2.871232
2007-03-19 09:04:22 51°11.773 2°45.844 9.2297 3.646667 32.614083 -2.871232
2007-03-19 09:04:26 51°11.77 2°45.823 9.2278 3.646667 32.614943 -2.871232
2007-03-19 09:04:31 51°11.767 2°45.796 9.226 3.646667 32.614943 -2.871232
2007-03-19 09:04:37 51°11.763 2°45.764 9.2256 3.646874 32.617004 -2.871232
2007-03-19 09:04:42 51°11.76 2°45.736 9.2227 3.646771 32.615973 -2.871232
2007-03-19 09:04:47 51°11.756 2°45.71 9.2241 3.646978 32.618034 -2.871232
2007-03-19 09:04:51 51°11.753 2°45.688 9.2255 3.647185 32.619235 -2.871232
2007-03-19 09:04:56 51°11.749 2°45.662 9.2273 3.647289 32.619406 -2.871232
2007-03-19 09:05:02 51°11.745 2°45.629 9.2265 3.647289 32.619406 -2.871232
2007-03-19 09:05:07 51°11.742 2°45.603 9.224 3.647392 32.620437 -2.871232
2007-03-19 09:05:12 51°11.737 2°45.576 9.2231 3.6476 32.624217 -2.871232
2007-03-19 09:05:16 51°11.735 2°45.555 9.2249 3.647703 32.626107 -2.871232
2007-03-19 09:05:22 51°11.73 2°45.523 9.2216 3.6476 32.625077 -2.871232
2007-03-19 09:05:27 51°11.727 2°45.496 9.2251 3.647807 32.626278 -2.871232
2007-03-19 09:05:32 51°11.723 2°45.469 9.2293 3.647807 32.626278 -2.871232
2007-03-19 09:05:37 51°11.72 2°45.443 9.23 3.64791 32.627308 -2.871232
2007-03-19 09:05:42 51°11.716 2°45.416 9.2269 3.648118 32.630229 -2.871232
2007-03-19 09:05:47 51°11.712 2°45.389 9.2286 3.648221 32.63126 -2.871232
2007-03-19 09:05:52 51°11.71 2°45.362 9.2296 3.648428 32.633321 -2.871232
2007-03-19 09:05:56 51°11.706 2°45.341 9.2296 3.648532 32.634352 -2.871232
2007-03-19 09:06:02 51°11.703 2°45.308 9.2312 3.648532 32.634352 -2.871232
2007-03-19 09:06:07 51°11.699 2°45.282 9.2286 3.648532 32.633492 -2.871232
2007-03-19 09:06:12 51°11.695 2°45.255 9.2255 3.648739 32.634693 -2.871232
2007-03-19 09:06:17 51°11.692 2°45.228 9.2281 3.64905 32.637784 -2.871232
2007-03-19 09:06:22 51°11.688 2°45.202 9.2287 3.648946 32.635894 -2.871232
2007-03-19 09:06:26 51°11.685 2°45.18 9.2338 3.648946 32.635034 -2.871232
2007-03-19 09:06:32 51°11.683 2°45.148 9.2303 3.648946 32.635034 -2.871232
2007-03-19 09:06:37 51°11.68 2°45.121 9.2289 3.649257 32.637266 -2.871232
2007-03-19 09:06:42 51°11.678 2°45.094 9.2252 3.649464 32.640186 -2.871232
2007-03-19 09:06:46 51°11.676 2°45.072 9.2266 3.649672 32.643108 -2.871232
2007-03-19 09:06:51 51°11.673 2°45.045 9.2249 3.649775 32.643278 -2.871232
2007-03-19 09:06:57 51°11.671 2°45.013 9.2293 3.649879 32.643448 -2.871232
2007-03-19 09:07:02 51°11.668 2°44.986 9.2316 3.649879 32.643448 -2.871232
2007-03-19 09:07:07 51°11.666 2°44.959 9.2383 3.649982 32.643619 -2.871232
2007-03-19 09:07:11 51°11.665 2°44.938 9.2298 3.650293 32.648431 -2.871232
2007-03-19 09:07:16 51°11.663 2°44.911 9.2289 3.650397 32.651182 -2.871232
2007-03-19 09:07:22 51°11.663 2°44.879 9.2318 3.650708 32.654274 -2.871232
2007-03-19 09:07:27 51°11.661 2°44.852 9.2285 3.650604 32.652383 -2.871232
2007-03-19 09:07:32 51°11.661 2°44.825 9.2286 3.650604 32.652383 -2.871232
2007-03-19 09:07:36 51°11.66 2°44.804 9.2334 3.650811 32.652723 -2.871232
2007-03-19 09:07:42 51°11.659 2°44.771 9.2328 3.650811 32.650142 -2.871232
2007-03-19 09:07:47 51°11.659 2°44.745 9.2336 3.651122 32.654954 -2.871232
2007-03-19 09:07:52 51°11.657 2°44.718 9.2312 3.651122 32.654954 -2.871232
2007-03-19 09:07:56 51°11.658 2°44.696 9.2291 3.651329 32.657015 -2.871232
2007-03-19 09:08:02 51°11.656 2°44.664 9.2319 3.651329 32.657015 -2.871232
2007-03-19 09:08:07 51°11.656 2°44.637 9.2326 3.651433 32.658046 -2.871232
2007-03-19 09:08:12 51°11.655 2°44.611 9.2352 3.651536 32.659077 -2.871232
2007-03-19 09:08:16 51°11.654 2°44.589 9.2355 3.651743 32.660277 -2.871232
2007-03-19 09:08:22 51°11.653 2°44.558 9.2363 3.651951 32.663199 -2.871232
2007-03-19 09:08:26 51°11.652 2°44.537 9.2381 3.652261 32.666291 -2.871232
2007-03-19 09:08:32 51°11.65 2°44.506 9.2368 3.652261 32.666291 -2.871232
2007-03-19 09:08:36 51°11.65 2°44.486 9.2374 3.652365 32.667321 -2.871232
2007-03-19 09:08:42 51°11.648 2°44.454 9.2358 3.652676 32.669552 -2.871232
2007-03-19 09:08:47 51°11.648 2°44.427 9.2374 3.652779 32.669722 -2.871232
2007-03-19 09:08:52 51°11.646 2°44.402 9.2371 3.653297 32.673153 -2.871232
2007-03-19 09:08:57 51°11.645 2°44.375 9.243 3.653505 32.674353 -2.871232
2007-03-19 09:09:02 51°11.644 2°44.349 9.2453 3.653505 32.674353 -2.871232
2007-03-19 09:09:06 51°11.643 2°44.329 9.2439 3.654023 32.678645 -2.871232
2007-03-19 09:09:11 51°11.642 2°44.302 9.242 3.654126 32.679676 -2.871232
2007-03-19 09:09:16 51°11.641 2°44.277 9.2406 3.654437 32.682767 -2.871232
2007-03-19 09:09:22 51°11.64 2°44.246 9.2433 3.654333 32.680876 -2.871232
2007-03-19 09:09:27 51°11.639 2°44.22 9.2423 3.654748 32.682415 -2.871232
2007-03-19 09:09:31 51°11.638 2°44.2 9.2428 3.654748 32.682415 -2.871232
2007-03-19 09:09:36 51°11.637 2°44.174 9.2421 3.654541 32.678632 -2.871232
2007-03-19 09:09:42 51°11.636 2°44.142 9.2436 3.655162 32.684815 -2.871232
2007-03-19 09:09:47 51°11.634 2°44.116 9.2445 3.65568 32.689967 -2.871232
2007-03-19 09:09:52 51°11.634 2°44.09 9.2411 3.656198 32.695119 -2.871232
2007-03-19 09:09:56 51°11.633 2°44.07 9.2428 3.656302 32.697011 -2.871232
2007-03-19 09:10:02 51°11.632 2°44.037 9.2484 3.656302 32.697011 -2.871232
2007-03-19 09:10:07 51°11.631 2°44.012 9.2466 3.656509 32.699072 -2.871232
2007-03-19 09:10:12 51°11.63 2°43.986 9.2469 3.656923 32.703193 -2.871232
2007-03-19 09:10:16 51°11.629 2°43.964 9.2433 3.656613 32.698379 -2.871232
2007-03-19 09:10:22 51°11.628 2°43.932 9.2474 3.657545 32.708515 -2.871232
2007-03-19 09:10:26 51°11.627 2°43.911 9.2426 3.657856 32.711607 -2.871232
2007-03-19 09:10:32 51°11.626 2°43.88 9.2434 3.657856 32.711607 -2.871232
2007-03-19 09:10:36 51°11.625 2°43.858 9.2441 3.657959 32.710052 -2.871232
2007-03-19 09:10:42 51°11.624 2°43.826 9.244 3.658166 32.711252 -2.871232
2007-03-19 09:10:47 51°11.624 2°43.799 9.2408 3.658374 32.713313 -2.871232
2007-03-19 09:10:52 51°11.623 2°43.773 9.2404 3.65941 32.724479 -2.871232
2007-03-19 09:10:57 51°11.622 2°43.746 9.2386 3.65941 32.725341 -2.871232
2007-03-19 09:11:02 51°11.621 2°43.719 9.2382 3.65941 32.725341 -2.871232
2007-03-19 09:11:06 51°11.62 2°43.697 9.2412 3.659721 32.729295 -2.871232
2007-03-19 09:11:11 51°11.619 2°43.671 9.246 3.659513 32.727233 -2.871232
2007-03-19 09:11:17 51°11.619 2°43.639 9.2425 3.660549 32.737539 -2.871232
2007-03-19 09:11:22 51°11.618 2°43.612 9.2446 3.660757 32.741325 -2.871232
2007-03-19 09:11:26 51°11.617 2°43.591 9.2463 3.661067 32.746143 -2.871232
2007-03-19 09:11:31 51°11.616 2°43.564 9.2451 3.661067 32.746143 -2.871232
2007-03-19 09:11:37 51°11.615 2°43.532 9.2464 3.661378 32.750098 -2.871232
2007-03-19 09:11:42 51°11.614 2°43.505 9.2448 3.661585 32.751296 -2.871232
2007-03-19 09:11:47 51°11.613 2°43.479 9.2461 3.661689 32.750602 -2.871232
2007-03-19 09:11:51 51°11.612 2°43.458 9.2486 3.662311 32.755923 -2.871232
2007-03-19 09:11:56 51°11.611 2°43.431 9.2522 3.662518 32.757985 -2.871232
2007-03-19 09:12:02 51°11.61 2°43.399 9.2518 3.662518 32.757985 -2.871232
2007-03-19 09:12:07 51°11.609 2°43.373 9.2541 3.662414 32.756091 -2.871232
2007-03-19 09:12:12 51°11.608 2°43.346 9.2501 3.662725 32.759183 -2.871232
2007-03-19 09:12:16 51°11.607 2°43.325 9.2513 3.663347 32.763642 -2.871232
2007-03-19 09:12:22 51°11.605 2°43.294 9.2542 3.663554 32.76484 -2.871232
2007-03-19 09:12:27 51°11.604 2°43.267 9.2503 3.66345 32.762084 -2.871232
2007-03-19 09:12:31 51°11.603 2°43.246 9.2514 3.66345 32.762084 -2.871232
2007-03-19 09:12:36 51°11.602 2°43.22 9.2572 3.664072 32.766542 -2.871232
2007-03-19 09:12:42 51°11.601 2°43.188 9.2527 3.664072 32.765679 -2.871232
2007-03-19 09:12:47 51°11.599 2°43.162 9.254 3.6649 32.773924 -2.871232
2007-03-19 09:12:52 51°11.598 2°43.136 9.2565 3.665108 32.775122 -2.871232
2007-03-19 09:12:56 51°11.597 2°43.115 9.2558 3.665418 32.778213 -2.871232
2007-03-19 09:13:02 51°11.595 2°43.083 9.2553 3.665418 32.778213 -2.871232
2007-03-19 09:13:06 51°11.593 2°43.062 9.2584 3.665626 32.779412 -2.871232
2007-03-19 09:13:11 51°11.591 2°43.035 9.2628 3.665626 32.778548 -2.871232
2007-03-19 09:13:17 51°11.588 2°43.004 9.2599 3.666144 32.783701 -2.871232
2007-03-19 09:13:22 51°11.585 2°42.977 9.2653 3.666454 32.78593 -2.871232
2007-03-19 09:13:26 51°11.583 2°42.957 9.2649 3.666869 32.790052 -2.871232
2007-03-19 09:13:31 51°11.58 2°42.93 9.2621 3.666869 32.790052 -2.871232
2007-03-19 09:13:37 51°11.576 2°42.899 9.263 3.666972 32.791083 -2.871232
2007-03-19 09:13:42 51°11.573 2°42.872 9.269 3.667283 32.792447 -2.871232
2007-03-19 09:13:47 51°11.57 2°42.846 9.2647 3.667387 32.791751 -2.871232
2007-03-19 09:13:51 51°11.568 2°42.825 9.2691 3.667801 32.794146 -2.871232
2007-03-19 09:13:56 51°11.565 2°42.798 9.27 3.668008 32.794481 -2.871232
2007-03-19 09:14:02 51°11.561 2°42.767 9.2675 3.668008 32.794481 -2.871232
2007-03-19 09:14:07 51°11.558 2°42.741 9.2671 3.668423 32.798602 -2.871232
2007-03-19 09:14:12 51°11.554 2°42.714 9.268 3.66863 32.7998 -2.871232
2007-03-19 09:14:16 51°11.552 2°42.693 9.2658 3.668941 32.801164 -2.871232
2007-03-19 09:14:22 51°11.548 2°42.662 9.2628 3.669252 32.802528 -2.871232
2007-03-19 09:14:27 51°11.544 2°42.636 9.2648 3.669562 32.803892 -2.871232
2007-03-19 09:14:31 51°11.541 2°42.615 9.2645 3.669562 32.803892 -2.871232
2007-03-19 09:14:36 51°11.537 2°42.59 9.2621 3.669873 32.806983 -2.871232
2007-03-19 09:14:42 51°11.531 2°42.558 9.2626 3.670391 32.812135 -2.871232
2007-03-19 09:14:47 51°11.526 2°42.533 9.2623 3.670702 32.815226 -2.871232
2007-03-19 09:14:52 51°11.521 2°42.507 9.2634 3.671013 32.820045 -2.871232
2007-03-19 09:14:56 51°11.515 2°42.486 9.2623 3.67122 32.822969 -2.871232
2007-03-19 09:15:02 51°11.508 2°42.458 9.2692 3.67122 32.822969 -2.871232
2007-03-19 09:15:07 51°11.502 2°42.433 9.2686 3.671531 32.826061 -2.871232
2007-03-19 09:15:12 51°11.497 2°42.408 9.2664 3.671842 32.830881 -2.871232
2007-03-19 09:15:17 51°11.491 2°42.384 9.264 3.672256 32.835867 -2.871232
2007-03-19 09:15:22 51°11.485 2°42.36 9.266 3.672567 32.838095 -2.871232
2007-03-19 09:15:27 51°11.478 2°42.335 9.2617 3.672981 32.841352 -2.871232
2007-03-19 09:15:32 51°11.472 2°42.31 9.262 3.672981 32.841352 -2.871232
2007-03-19 09:15:37 51°11.465 2°42.286 9.2592 3.673603 32.846671 -2.871232
2007-03-19 09:15:42 51°11.458 2°42.261 9.2592 3.67381 32.847003 -2.871232
2007-03-19 09:15:47 51°11.451 2°42.236 9.2619 3.674328 32.852156 -2.871232
2007-03-19 09:15:51 51°11.445 2°42.216 9.2652 3.674846 32.858174 -2.871232
2007-03-19 09:15:57 51°11.435 2°42.188 9.2657 3.675364 32.864192 -2.871232
2007-03-19 09:16:02 51°11.427 2°42.163 9.2678 3.675364 32.864192 -2.871232
2007-03-19 09:16:07 51°11.418 2°42.139 9.2652 3.675675 32.869014 -2.871232
2007-03-19 09:16:11 51°11.412 2°42.12 9.2664 3.675986 32.873837 -2.871232
2007-03-19 09:16:16 51°11.403 2°42.097 9.2672 3.676297 32.877795 -2.871232
2007-03-19 09:16:22 51°11.392 2°42.068 9.2695 3.676297 32.876064 -2.871232
2007-03-19 09:16:27 51°11.384 2°42.043 9.2707 3.676297 32.874333 -2.871232
2007-03-19 09:16:32 51°11.375 2°42.02 9.2684 3.676297 32.874333 -2.871232
2007-03-19 09:16:36 51°11.369 2°42 9.2696 3.6764 32.873633 -2.871232
2007-03-19 09:16:42 51°11.358 2°41.971 9.2689 3.676504 32.874664 -2.871232
2007-03-19 09:16:47 51°11.349 2°41.948 9.2712 3.676297 32.871737 -2.871232
2007-03-19 09:16:52 51°11.34 2°41.924 9.2731 3.676504 32.872933 -2.871232
2007-03-19 09:16:57 51°11.331 2°41.901 9.2736 3.676297 32.869142 -2.871232
2007-03-19 09:17:02 51°11.322 2°41.878 9.2718 3.676297 32.869142 -2.871232
2007-03-19 09:17:07 51°11.313 2°41.854 9.2738 3.676504 32.871203 -2.871232
2007-03-19 09:17:12 51°11.304 2°41.831 9.2743 3.6764 32.869307 -2.871232
2007-03-19 09:17:17 51°11.296 2°41.806 9.2764 3.676504 32.869473 -2.871232
2007-03-19 09:17:22 51°11.286 2°41.783 9.2708 3.6764 32.866712 -2.871232
2007-03-19 09:17:26 51°11.28 2°41.764 9.2755 3.676504 32.866877 -2.871232
2007-03-19 09:17:32 51°11.269 2°41.736 9.2712 3.676504 32.866877 -2.871232
2007-03-19 09:17:36 51°11.262 2°41.717 9.2733 3.676504 32.866877 -2.871232
2007-03-19 09:17:42 51°11.252 2°41.688 9.2746 3.676504 32.866013 -2.871232
2007-03-19 09:17:47 51°11.243 2°41.664 9.2721 3.6764 32.864982 -2.871232
2007-03-19 09:17:52 51°11.234 2°41.64 9.2702 3.6764 32.865847 -2.871232
2007-03-19 09:17:57 51°11.225 2°41.617 9.2708 3.676297 32.864817 -2.871232
2007-03-19 09:18:02 51°11.216 2°41.593 9.2767 3.676297 32.864817 -2.871232
2007-03-19 09:18:06 51°11.209 2°41.575 9.2731 3.676297 32.865682 -2.871232
2007-03-19 09:18:11 51°11.201 2°41.55 9.2762 3.676193 32.864651 -2.871232
2007-03-19 09:18:17 51°11.19 2°41.522 9.2763 3.676089 32.862756 -2.871232
2007-03-19 09:18:22 51°11.181 2°41.499 9.2755 3.676089 32.863621 -2.871232
2007-03-19 09:18:27 51°11.173 2°41.475 9.2762 3.676089 32.863621 -2.871232
2007-03-19 09:18:31 51°11.166 2°41.457 9.2752 3.676089 32.863621 -2.871232
2007-03-19 09:18:36 51°11.157 2°41.434 9.2729 3.675986 32.860861 -2.871232
2007-03-19 09:18:42 51°11.145 2°41.406 9.2743 3.675986 32.859996 -2.871232
2007-03-19 09:18:47 51°11.135 2°41.384 9.2744 3.675882 32.858101 -2.871232
2007-03-19 09:18:52 51°11.126 2°41.361 9.2785 3.675778 32.856206 -2.871232
2007-03-19 09:18:56 51°11.119 2°41.342 9.2743 3.675882 32.857236 -2.871232
2007-03-19 09:19:02 51°11.106 2°41.316 9.2725 3.675882 32.857236 -2.871232
2007-03-19 09:19:07 51°11.097 2°41.292 9.2836 3.675986 32.859131 -2.871232
2007-03-19 09:19:12 51°11.087 2°41.27 9.273 3.675986 32.859996 -2.871232
2007-03-19 09:19:17 51°11.077 2°41.247 9.2754 3.676193 32.862057 -2.871232
2007-03-19 09:19:22 51°11.067 2°41.224 9.2779 3.676089 32.860162 -2.871232
2007-03-19 09:19:27 51°11.057 2°41.202 9.2764 3.676089 32.861026 -2.871232
2007-03-19 09:19:32 51°11.047 2°41.179 9.279 3.676089 32.861026 -2.871232
2007-03-19 09:19:36 51°11.039 2°41.161 9.2746 3.676193 32.861192 -2.871232
2007-03-19 09:19:42 51°11.027 2°41.133 9.28 3.675986 32.858267 -2.871232
2007-03-19 09:19:47 51°11.017 2°41.111 9.2788 3.676193 32.861192 -2.871232
2007-03-19 09:19:52 51°11.006 2°41.088 9.2777 3.676296 32.862222 -2.871232
2007-03-19 09:19:57 51°10.997 2°41.065 9.279 3.676089 32.859297 -2.871232
2007-03-19 09:20:02 51°10.986 2°41.042 9.2777 3.676089 32.859297 -2.871232
2007-03-19 09:20:06 51°10.979 2°41.023 9.2762 3.676193 32.859463 -2.871232
2007-03-19 09:20:12 51°10.967 2°40.996 9.2757 3.6764 32.862388 -2.871232
2007-03-19 09:20:17 51°10.957 2°40.973 9.278 3.6764 32.861523 -2.871232
2007-03-19 09:20:22 51°10.946 2°40.95 9.2794 3.6764 32.860658 -2.871232
2007-03-19 09:20:27 51°10.936 2°40.927 9.277 3.676504 32.860824 -2.871232
2007-03-19 09:20:31 51°10.928 2°40.909 9.2799 3.676504 32.860824 -2.871232
2007-03-19 09:20:37 51°10.917 2°40.882 9.2799 3.676711 32.862885 -2.871232
2007-03-19 09:20:42 51°10.907 2°40.859 9.2744 3.676607 32.862719 -2.871232
2007-03-19 09:20:47 51°10.896 2°40.836 9.2782 3.676814 32.86478 -2.871232
2007-03-19 09:20:52 51°10.886 2°40.813 9.2833 3.676918 32.864945 -2.871232
2007-03-19 09:20:56 51°10.878 2°40.795 9.2774 3.676814 32.86478 -2.871232
2007-03-19 09:21:02 51°10.866 2°40.767 9.2756 3.676814 32.86478 -2.871232
2007-03-19 09:21:07 51°10.856 2°40.744 9.2744 3.676918 32.86581 -2.871232
2007-03-19 09:21:12 51°10.847 2°40.72 9.2786 3.677022 32.86684 -2.871232
2007-03-19 09:21:17 51°10.836 2°40.698 9.2794 3.677022 32.867705 -2.871232
2007-03-19 09:21:22 51°10.826 2°40.674 9.2799 3.677022 32.86684 -2.871232
2007-03-19 09:21:27 51°10.817 2°40.65 9.2768 3.677125 32.86787 -2.871232
2007-03-19 09:21:32 51°10.806 2°40.627 9.2714 3.677125 32.86787 -2.871232
2007-03-19 09:21:36 51°10.799 2°40.609 9.2737 3.677125 32.868735 -2.871232
2007-03-19 09:21:42 51°10.787 2°40.582 9.2741 3.677022 32.86857 -2.871232
2007-03-19 09:21:47 51°10.778 2°40.558 9.2731 3.677125 32.86787 -2.871232
2007-03-19 09:21:52 51°10.767 2°40.537 9.2738 3.677022 32.865975 -2.871232
2007-03-19 09:21:56 51°10.759 2°40.518 9.2698 3.676918 32.86581 -2.871232
2007-03-19 09:22:02 51°10.747 2°40.491 9.2765 3.676918 32.86581 -2.871232
2007-03-19 09:22:07 51°10.737 2°40.469 9.2721 3.677125 32.8696 -2.871232
2007-03-19 09:22:12 51°10.728 2°40.446 9.2735 3.677022 32.869435 -2.871232
2007-03-19 09:22:17 51°10.718 2°40.424 9.2704 3.676918 32.868404 -2.871232
2007-03-19 09:22:22 51°10.708 2°40.401 9.2699 3.676815 32.867374 -2.871232
2007-03-19 09:22:26 51°10.701 2°40.383 9.27 3.676815 32.867374 -2.871232
2007-03-19 09:22:32 51°10.688 2°40.356 9.2716 3.676815 32.867374 -2.871232
2007-03-19 09:22:37 51°10.679 2°40.333 9.27 3.676711 32.866344 -2.871232
2007-03-19 09:22:42 51°10.669 2°40.31 9.2679 3.676504 32.864283 -2.871232
2007-03-19 09:22:47 51°10.661 2°40.286 9.2715 3.676607 32.865313 -2.871232
2007-03-19 09:22:51 51°10.651 2°40.269 9.2721 3.676504 32.866013 -2.871232
2007-03-19 09:22:57 51°10.64 2°40.241 9.2718 3.676504 32.867742 -2.871232
2007-03-19 09:23:02 51°10.63 2°40.218 9.2772 3.676504 32.867742 -2.871232
2007-03-19 09:23:07 51°10.62 2°40.196 9.2713 3.676504 32.867742 -2.871232
2007-03-19 09:23:12 51°10.611 2°40.173 9.2771 3.676504 32.868607 -2.871232
2007-03-19 09:23:17 51°10.601 2°40.151 9.2751 3.676297 32.867411 -2.871232
2007-03-19 09:23:22 51°10.591 2°40.127 9.2776 3.676193 32.865516 -2.871232
2007-03-19 09:23:27 51°10.582 2°40.103 9.2778 3.676089 32.863621 -2.871232
2007-03-19 09:23:32 51°10.572 2°40.08 9.2759 3.676089 32.863621 -2.871232
2007-03-19 09:23:37 51°10.563 2°40.057 9.2774 3.675986 32.860861 -2.871232
2007-03-19 09:23:42 51°10.553 2°40.033 9.2845 3.675986 32.859996 -2.871232
2007-03-19 09:23:47 51°10.543 2°40.01 9.2866 3.675882 32.857236 -2.871232
2007-03-19 09:23:52 51°10.533 2°39.986 9.2842 3.675882 32.857236 -2.871232
2007-03-19 09:23:56 51°10.524 2°39.968 9.2881 3.675882 32.856372 -2.871232
2007-03-19 09:24:02 51°10.514 2°39.941 9.2908 3.675882 32.856372 -2.871232
2007-03-19 09:24:07 51°10.504 2°39.918 9.2863 3.675986 32.857402 -2.871232
2007-03-19 09:24:12 51°10.494 2°39.895 9.2887 3.675882 32.855507 -2.871232
2007-03-19 09:24:16 51°10.487 2°39.876 9.2909 3.675882 32.852914 -2.871232
2007-03-19 09:24:22 51°10.475 2°39.849 9.2893 3.675882 32.850321 -2.871232
2007-03-19 09:24:27 51°10.465 2°39.826 9.2904 3.675882 32.848593 -2.871232
2007-03-19 09:24:32 51°10.455 2°39.802 9.2908 3.675882 32.848593 -2.871232
2007-03-19 09:24:37 51°10.446 2°39.779 9.2953 3.675882 32.846865 -2.871232
2007-03-19 09:24:42 51°10.436 2°39.755 9.2957 3.675882 32.846865 -2.871232
2007-03-19 09:24:46 51°10.428 2°39.737 9.2955 3.675778 32.844971 -2.871232
2007-03-19 09:24:52 51°10.416 2°39.708 9.2965 3.675882 32.845137 -2.871232
2007-03-19 09:24:57 51°10.406 2°39.686 9.2988 3.675882 32.844273 -2.871232
2007-03-19 09:25:02 51°10.397 2°39.662 9.2976 3.675882 32.844273 -2.871232
2007-03-19 09:25:07 51°10.386 2°39.639 9.3028 3.675985 32.844439 -2.871232
2007-03-19 09:25:11 51°10.378 2°39.62 9.3054 3.675882 32.841681 -2.871232
2007-03-19 09:25:17 51°10.366 2°39.593 9.2985 3.675985 32.840984 -2.871232
2007-03-19 09:25:22 51°10.357 2°39.568 9.3026 3.676089 32.842013 -2.871232
2007-03-19 09:25:27 51°10.347 2°39.545 9.3034 3.676193 32.841316 -2.871232
2007-03-19 09:25:32 51°10.337 2°39.522 9.3024 3.676193 32.841316 -2.871232
2007-03-19 09:25:36 51°10.329 2°39.503 9.3058 3.6764 32.842512 -2.871232
2007-03-19 09:25:42 51°10.317 2°39.477 9.3063 3.676296 32.838891 -2.871232
2007-03-19 09:25:47 51°10.307 2°39.454 9.3008 3.676503 32.840087 -2.871232
2007-03-19 09:25:52 51°10.297 2°39.431 9.3047 3.676503 32.840087 -2.871232
2007-03-19 09:25:56 51°10.289 2°39.413 9.3028 3.676607 32.840253 -2.871232
2007-03-19 09:26:02 51°10.278 2°39.385 9.2994 3.676607 32.840253 -2.871232
2007-03-19 09:26:07 51°10.268 2°39.362 9.2996 3.676711 32.841283 -2.871232
2007-03-19 09:26:12 51°10.258 2°39.34 9.3062 3.676814 32.840585 -2.871232
2007-03-19 09:26:17 51°10.249 2°39.316 9.3046 3.676711 32.839556 -2.871232
2007-03-19 09:26:22 51°10.239 2°39.293 9.3061 3.676711 32.839556 -2.871232
2007-03-19 09:26:27 51°10.23 2°39.27 9.3015 3.676918 32.842478 -2.871232
2007-03-19 09:26:32 51°10.219 2°39.248 9.3073 3.676918 32.842478 -2.871232
2007-03-19 09:26:36 51°10.212 2°39.228 9.3042 3.677021 32.844371 -2.871232
2007-03-19 09:26:42 51°10.2 2°39.2 9.3019 3.677021 32.844371 -2.871232
2007-03-19 09:26:47 51°10.19 2°39.177 9.3014 3.677021 32.842644 -2.871232
2007-03-19 09:26:52 51°10.181 2°39.154 9.3014 3.677021 32.841781 -2.871232
2007-03-19 09:26:57 51°10.171 2°39.13 9.3036 3.677021 32.841781 -2.871232
2007-03-19 09:27:02 51°10.161 2°39.107 9.3069 3.677021 32.841781 -2.871232
2007-03-19 09:27:06 51°10.153 2°39.088 9.3017 3.677229 32.842976 -2.871232
2007-03-19 09:27:11 51°10.144 2°39.065 9.3024 3.677229 32.84384 -2.871232
2007-03-19 09:27:17 51°10.133 2°39.036 9.3055 3.677229 32.845567 -2.871232
2007-03-19 09:27:22 51°10.122 2°39.012 9.3091 3.677125 32.844537 -2.871232
2007-03-19 09:27:27 51°10.113 2°38.989 9.3064 3.677125 32.844537 -2.871232
2007-03-19 09:27:31 51°10.105 2°38.97 9.3073 3.677125 32.844537 -2.871232
2007-03-19 09:27:37 51°10.094 2°38.942 9.3057 3.677229 32.844703 -2.871232
2007-03-19 09:27:42 51°10.083 2°38.919 9.3048 3.677125 32.843674 -2.871232
2007-03-19 09:27:47 51°10.073 2°38.896 9.3054 3.677021 32.842644 -2.871232
2007-03-19 09:27:52 51°10.063 2°38.873 9.3104 3.676814 32.839722 -2.871232
2007-03-19 09:27:56 51°10.055 2°38.855 9.3088 3.676607 32.8368 -2.871232
2007-03-19 09:28:02 51°10.043 2°38.828 9.3091 3.676607 32.8368 -2.871232
2007-03-19 09:28:07 51°10.032 2°38.806 9.3115 3.6764 32.834741 -2.871232
2007-03-19 09:28:12 51°10.023 2°38.783 9.3069 3.6764 32.834741 -2.871232
2007-03-19 09:28:17 51°10.012 2°38.761 9.3069 3.676192 32.831819 -2.871232
2007-03-19 09:28:22 51°10.003 2°38.738 9.3105 3.676192 32.830956 -2.871232
2007-03-19 09:28:27 51°9.992 2°38.716 9.3133 3.676089 32.829063 -2.871232
2007-03-19 09:28:32 51°9.983 2°38.694 9.3107 3.676089 32.829063 -2.871232
2007-03-19 09:28:37 51°9.972 2°38.672 9.3087 3.675985 32.826308 -2.871232
2007-03-19 09:28:42 51°9.962 2°38.65 9.3087 3.675778 32.824249 -2.871232
2007-03-19 09:28:47 51°9.952 2°38.627 9.3082 3.675778 32.825112 -2.871232
2007-03-19 09:28:52 51°9.942 2°38.604 9.311 3.675778 32.825112 -2.871232
2007-03-19 09:28:57 51°9.932 2°38.581 9.3101 3.675674 32.822357 -2.871232
2007-03-19 09:29:02 51°9.922 2°38.558 9.314 3.675674 32.822357 -2.871232
2007-03-19 09:29:07 51°9.912 2°38.535 9.3163 3.675571 32.821328 -2.871232
2007-03-19 09:29:12 51°9.902 2°38.512 9.3122 3.675467 32.821162 -2.871232
2007-03-19 09:29:17 51°9.892 2°38.488 9.3158 3.675364 32.820995 -2.871232
2007-03-19 09:29:22 51°9.881 2°38.466 9.3177 3.675156 32.818937 -2.871232
2007-03-19 09:29:26 51°9.873 2°38.448 9.3186 3.675053 32.817907 -2.871232
2007-03-19 09:29:32 51°9.861 2°38.421 9.3208 3.675053 32.817907 -2.871232
2007-03-19 09:29:37 51°9.851 2°38.398 9.3241 3.674846 32.814124 -2.871232
2007-03-19 09:29:42 51°9.84 2°38.375 9.3235 3.674638 32.811203 -2.871232
2007-03-19 09:29:47 51°9.831 2°38.352 9.3252 3.674535 32.809311 -2.871232
2007-03-19 09:29:51 51°9.822 2°38.335 9.3254 3.674328 32.805528 -2.871232
2007-03-19 09:29:56 51°9.811 2°38.312 9.3295 3.674431 32.804833 -2.871232
2007-03-19 09:30:02 51°9.8 2°38.285 9.3279 3.674431 32.804833 -2.871232
2007-03-19 09:30:07 51°9.789 2°38.263 9.3345 3.674224 32.801051 -2.871232
2007-03-19 09:30:12 51°9.78 2°38.241 9.3312 3.674224 32.799327 -2.871232
2007-03-19 09:30:16 51°9.771 2°38.223 9.3292 3.674017 32.794684 -2.871232
2007-03-19 09:30:22 51°9.759 2°38.196 9.3339 3.673913 32.792794 -2.871232
2007-03-19 09:30:27 51°9.749 2°38.173 9.3354 3.674017 32.791238 -2.871232
2007-03-19 09:30:32 51°9.739 2°38.15 9.339 3.674017 32.791238 -2.871232
2007-03-19 09:30:37 51°9.729 2°38.128 9.3394 3.673809 32.788319 -2.871232
2007-03-19 09:30:42 51°9.718 2°38.105 9.3386 3.673602 32.784539 -2.871232
2007-03-19 09:30:47 51°9.708 2°38.082 9.3459 3.673395 32.78162 -2.871232
2007-03-19 09:30:52 51°9.696 2°38.061 9.3448 3.673084 32.777674 -2.871232
2007-03-19 09:30:56 51°9.688 2°38.043 9.3444 3.672877 32.773895 -2.871232
2007-03-19 09:31:02 51°9.674 2°38.017 9.3472 3.672877 32.773895 -2.871232
2007-03-19 09:31:07 51°9.663 2°37.996 9.3446 3.672773 32.771145 -2.871232
2007-03-19 09:31:12 51°9.651 2°37.975 9.346 3.672566 32.767367 -2.871232
2007-03-19 09:31:17 51°9.639 2°37.955 9.3476 3.672255 32.762561 -2.871232
2007-03-19 09:31:22 51°9.627 2°37.934 9.3466 3.672048 32.758783 -2.871232
2007-03-19 09:31:26 51°9.617 2°37.917 9.3467 3.671944 32.756035 -2.871232
2007-03-19 09:31:32 51°9.602 2°37.893 9.3488 3.671944 32.756035 -2.871232
2007-03-19 09:31:37 51°9.59 2°37.871 9.3487 3.671633 32.75209 -2.871232
2007-03-19 09:31:42 51°9.577 2°37.853 9.3507 3.671323 32.748146 -2.871232
2007-03-19 09:31:47 51°9.566 2°37.831 9.3492 3.671012 32.744202 -2.871232
2007-03-19 09:31:51 51°9.555 2°37.815 9.3548 3.670908 32.742314 -2.871232
2007-03-19 09:31:57 51°9.541 2°37.79 9.3539 3.670597 32.738371 -2.871232
2007-03-19 09:32:02 51°9.529 2°37.77 9.3524 3.670597 32.738371 -2.871232
2007-03-19 09:32:07 51°9.517 2°37.749 9.352 3.67039 32.736315 -2.871232
2007-03-19 09:32:12 51°9.505 2°37.727 9.3579 3.670287 32.734428 -2.871232
2007-03-19 09:32:17 51°9.494 2°37.707 9.3577 3.669976 32.730485 -2.871232
2007-03-19 09:32:22 51°9.482 2°37.686 9.3564 3.669769 32.726711 -2.871232
2007-03-19 09:32:27 51°9.47 2°37.664 9.3571 3.669665 32.724824 -2.871232
2007-03-19 09:32:32 51°9.458 2°37.643 9.3587 3.669665 32.724824 -2.871232
2007-03-19 09:32:37 51°9.446 2°37.624 9.3599 3.66925 32.719854 -2.871232
2007-03-19 09:32:42 51°9.434 2°37.603 9.3569 3.669147 32.717108 -2.871232
2007-03-19 09:32:47 51°9.423 2°37.582 9.3621 3.668732 32.712139 -2.871232
2007-03-19 09:32:52 51°9.412 2°37.563 9.3578 3.668525 32.709225 -2.871232
2007-03-19 09:32:56 51°9.404 2°37.55 9.3561 3.668422 32.707339 -2.871232
2007-03-19 09:33:02 51°9.391 2°37.528 9.3578 3.668422 32.707339 -2.871232
2007-03-19 09:33:07 51°9.381 2°37.511 9.3599 3.668214 32.704426 -2.871232
2007-03-19 09:33:12 51°9.371 2°37.494 9.3601 3.668111 32.70254 -2.871232
2007-03-19 09:33:17 51°9.362 2°37.478 9.3631 3.668007 32.700654 -2.871232
2007-03-19 09:33:22 51°9.354 2°37.462 9.3551 3.667904 32.699627 -2.871232
2007-03-19 09:33:26 51°9.347 2°37.45 9.3563 3.6678 32.698599 -2.871232
2007-03-19 09:33:32 51°9.338 2°37.432 9.3551 3.6678 32.698599 -2.871232
2007-03-19 09:33:37 51°9.331 2°37.419 9.3508 3.667489 32.695517 -2.871232
2007-03-19 09:33:42 51°9.324 2°37.406 9.3512 3.667386 32.69449 -2.871232
2007-03-19 09:33:46 51°9.318 2°37.396 9.3549 3.667282 32.693462 -2.871232
2007-03-19 09:33:52 51°9.31 2°37.382 9.3524 3.667075 32.691407 -2.871232
2007-03-19 09:33:57 51°9.303 2°37.371 9.3489 3.666868 32.691069 -2.871232
2007-03-19 09:34:02 51°9.297 2°37.36 9.3484 3.666868 32.691069 -2.871232
2007-03-19 09:34:07 51°9.291 2°37.349 9.349 3.66666 32.69073 -2.871232
2007-03-19 09:34:11 51°9.286 2°37.341 9.3466 3.666453 32.689533 -2.871232
2007-03-19 09:34:17 51°9.279 2°37.328 9.3469 3.666246 32.688336 -2.871232
2007-03-19 09:34:22 51°9.274 2°37.318 9.3463 3.666142 32.687309 -2.871232
2007-03-19 09:34:27 51°9.27 2°37.308 9.3485 3.666142 32.689025 -2.871232
2007-03-19 09:34:32 51°9.265 2°37.298 9.3518 3.666142 32.689025 -2.871232
2007-03-19 09:34:37 51°9.262 2°37.288 9.3523 3.665935 32.687828 -2.871232
2007-03-19 09:34:42 51°9.258 2°37.28 9.3532 3.665832 32.688517 -2.871232
2007-03-19 09:34:47 51°9.256 2°37.271 9.3532 3.665728 32.687489 -2.871232
2007-03-19 09:34:52 51°9.252 2°37.264 9.3472 3.665728 32.688347 -2.871232
2007-03-19 09:34:56 51°9.251 2°37.258 9.3478 3.665624 32.686461 -2.871232
2007-03-19 09:35:02 51°9.248 2°37.249 9.3502 3.665624 32.686461 -2.871232
2007-03-19 09:35:07 51°9.246 2°37.242 9.3456 3.665624 32.685603 -2.871232
2007-03-19 09:35:12 51°9.244 2°37.235 9.346 3.665624 32.684745 -2.871232
2007-03-19 09:35:16 51°9.243 2°37.228 9.3482 3.665521 32.68286 -2.871232
2007-03-19 09:35:22 51°9.24 2°37.22 9.3484 3.665417 32.681832 -2.871232
2007-03-19 09:35:27 51°9.239 2°37.213 9.3459 3.665106 32.679607 -2.871232
2007-03-19 09:35:32 51°9.238 2°37.206 9.3483 3.665106 32.679607 -2.871232
2007-03-19 09:35:37 51°9.237 2°37.2 9.3448 3.665106 32.682181 -2.871232
2007-03-19 09:35:42 51°9.236 2°37.193 9.347 3.665003 32.68287 -2.871232
2007-03-19 09:35:46 51°9.236 2°37.188 9.3461 3.664899 32.681842 -2.871232
2007-03-19 09:35:52 51°9.236 2°37.18 9.3456 3.664899 32.681842 -2.871232
2007-03-19 09:35:57 51°9.236 2°37.174 9.3465 3.664796 32.681673 -2.871232
2007-03-19 09:36:02 51°9.235 2°37.168 9.3436 3.664796 32.681673 -2.871232
2007-03-19 09:36:07 51°9.235 2°37.163 9.3438 3.664588 32.679617 -2.871232
2007-03-19 09:36:12 51°9.235 2°37.158 9.3451 3.664485 32.679448 -2.871232
2007-03-19 09:36:17 51°9.234 2°37.153 9.3457 3.664485 32.679448 -2.871232
2007-03-19 09:36:22 51°9.234 2°37.149 9.347 3.664485 32.679448 -2.871232
2007-03-19 09:36:27 51°9.233 2°37.145 9.3459 3.664485 32.680306 -2.871232
2007-03-19 09:36:32 51°9.233 2°37.143 9.3453 3.664485 32.680306 -2.871232
2007-03-19 09:36:37 51°9.231 2°37.139 9.3464 3.664381 32.679278 -2.871232
2007-03-19 09:36:42 51°9.231 2°37.137 9.3476 3.664278 32.679108 -2.871232
2007-03-19 09:36:47 51°9.229 2°37.134 9.348 3.664381 32.679278 -2.871232
2007-03-19 09:36:52 51°9.228 2°37.131 9.346 3.664381 32.679278 -2.871232
2007-03-19 09:36:57 51°9.227 2°37.129 9.3468 3.664381 32.679278 -2.871232
2007-03-19 09:37:02 51°9.225 2°37.127 9.3496 3.664381 32.679278 -2.871232
2007-03-19 09:37:07 51°9.224 2°37.125 9.3475 3.664278 32.679108 -2.871232
2007-03-19 09:37:12 51°9.222 2°37.124 9.3464 3.664381 32.680136 -2.871232
2007-03-19 09:37:16 51°9.221 2°37.122 9.3467 3.664485 32.681164 -2.871232
2007-03-19 09:37:22 51°9.218 2°37.121 9.3459 3.664381 32.680136 -2.871232
2007-03-19 09:37:27 51°9.217 2°37.12 9.3459 3.664381 32.680136 -2.871232
2007-03-19 09:37:32 51°9.214 2°37.12 9.3466 3.664381 32.680136 -2.871232
2007-03-19 09:37:37 51°9.213 2°37.119 9.3497 3.664485 32.680306 -2.871232
2007-03-19 09:37:42 51°9.21 2°37.119 9.352 3.664485 32.679448 -2.871232
2007-03-19 09:37:47 51°9.208 2°37.119 9.3441 3.664485 32.679448 -2.871232
2007-03-19 09:37:52 51°9.206 2°37.119 9.342 3.664588 32.681333 -2.871232
2007-03-19 09:37:57 51°9.204 2°37.119 9.3411 3.664485 32.681164 -2.871232
2007-03-19 09:38:02 51°9.203 2°37.119 9.341 3.664485 32.681164 -2.871232
2007-03-19 09:38:06 51°9.201 2°37.119 9.3402 3.664485 32.679448 -2.871232
2007-03-19 09:38:12 51°9.199 2°37.12 9.3456 3.664796 32.680815 -2.871232
2007-03-19 09:38:17 51°9.197 2°37.12 9.345 3.665003 32.677722 -2.871232
2007-03-19 09:38:22 51°9.195 2°37.12 9.3481 3.665106 32.678749 -2.871232
2007-03-19 09:38:27 51°9.193 2°37.12 9.3539 3.665106 32.679607 -2.871232
2007-03-19 09:38:32 51°9.192 2°37.121 9.3532 3.665106 32.679607 -2.871232
2007-03-19 09:38:37 51°9.19 2°37.121 9.3539 3.665003 32.679438 -2.871232
2007-03-19 09:38:42 51°9.189 2°37.122 9.3539 3.665003 32.679438 -2.871232
2007-03-19 09:38:47 51°9.187 2°37.122 9.3517 3.664899 32.67841 -2.871232
2007-03-19 09:38:52 51°9.186 2°37.122 9.3526 3.664692 32.674639 -2.871232
2007-03-19 09:38:57 51°9.184 2°37.123 9.3508 3.664381 32.668127 -2.871232
2007-03-19 09:39:02 51°9.183 2°37.123 9.3583 3.664381 32.668127 -2.871232
2007-03-19 09:39:07 51°9.182 2°37.123 9.352 3.664277 32.664527 -2.871232
2007-03-19 09:39:11 51°9.181 2°37.123 9.3558 3.664174 32.662643 -2.871232
2007-03-19 09:39:16 51°9.179 2°37.123 9.3516 3.663759 32.656819 -2.871232
2007-03-19 09:39:22 51°9.177 2°37.123 9.3558 3.663759 32.656819 -2.871232
2007-03-19 09:39:27 51°9.175 2°37.123 9.3564 3.663138 32.6498 -2.871232
2007-03-19 09:39:32 51°9.174 2°37.123 9.3541 3.663138 32.6498 -2.871232
2007-03-19 09:39:36 51°9.173 2°37.123 9.3528 3.663138 32.6498 -2.871232
2007-03-19 09:39:42 51°9.171 2°37.122 9.3573 3.663138 32.6498 -2.871232
2007-03-19 09:39:47 51°9.169 2°37.123 9.3527 3.662827 32.646718 -2.871232
2007-03-19 09:39:52 51°9.168 2°37.122 9.3512 3.662931 32.646889 -2.871232
2007-03-19 09:39:57 51°9.166 2°37.122 9.351 3.662516 32.641924 -2.871232
2007-03-19 09:40:02 51°9.164 2°37.122 9.3573 3.662516 32.641924 -2.871232
2007-03-19 09:40:06 51°9.163 2°37.122 9.3606 3.662205 32.638843 -2.871232
2007-03-19 09:40:12 51°9.161 2°37.122 9.3536 3.662723 32.643978 -2.871232
2007-03-19 09:40:17 51°9.159 2°37.121 9.3491 3.662205 32.637986 -2.871232
2007-03-19 09:40:22 51°9.158 2°37.121 9.3511 3.662102 32.637816 -2.871232
2007-03-19 09:40:27 51°9.156 2°37.121 9.353 3.662309 32.640726 -2.871232
2007-03-19 09:40:32 51°9.155 2°37.121 9.3611 3.662309 32.640726 -2.871232
2007-03-19 09:40:37 51°9.153 2°37.121 9.353 3.662516 32.64278 -2.871232
2007-03-19 09:40:42 51°9.151 2°37.121 9.3489 3.662309 32.639013 -2.871232
2007-03-19 09:40:47 51°9.15 2°37.121 9.3557 3.662309 32.63987 -2.871232
2007-03-19 09:40:52 51°9.148 2°37.12 9.3535 3.663034 32.648773 -2.871232
2007-03-19 09:40:57 51°9.146 2°37.12 9.3561 3.662931 32.647745 -2.871232
2007-03-19 09:41:02 51°9.145 2°37.12 9.3591 3.662931 32.647745 -2.871232
2007-03-19 09:41:07 51°9.143 2°37.12 9.3613 3.662516 32.64278 -2.871232
2007-03-19 09:41:11 51°9.142 2°37.12 9.3575 3.66262 32.643808 -2.871232
2007-03-19 09:41:16 51°9.14 2°37.12 9.3553 3.663034 32.647916 -2.871232
2007-03-19 09:41:22 51°9.138 2°37.12 9.3526 3.663034 32.647059 -2.871232
2007-03-19 09:41:27 51°9.136 2°37.12 9.3592 3.662931 32.646032 -2.871232
2007-03-19 09:41:32 51°9.135 2°37.119 9.3566 3.662931 32.646032 -2.871232
2007-03-19 09:41:36 51°9.133 2°37.118 9.3567 3.662827 32.644148 -2.871232
2007-03-19 09:41:42 51°9.131 2°37.118 9.357 3.662413 32.638327 -2.871232
2007-03-19 09:41:47 51°9.129 2°37.118 9.3608 3.662931 32.644319 -2.871232
2007-03-19 09:41:52 51°9.127 2°37.118 9.363 3.663138 32.647229 -2.871232
2007-03-19 09:41:57 51°9.125 2°37.117 9.3637 3.663345 32.649283 -2.871232
2007-03-19 09:42:02 51°9.124 2°37.116 9.3644 3.663345 32.649283 -2.871232
2007-03-19 09:42:07 51°9.122 2°37.116 9.3681 3.663345 32.649283 -2.871232
2007-03-19 09:42:12 51°9.12 2°37.116 9.3608 3.663345 32.649283 -2.871232
2007-03-19 09:42:17 51°9.118 2°37.116 9.359 3.663345 32.648427 -2.871232
2007-03-19 09:42:22 51°9.116 2°37.116 9.3582 3.663345 32.646713 -2.871232
2007-03-19 09:42:27 51°9.114 2°37.114 9.363 3.663345 32.645 -2.871232
2007-03-19 09:42:32 51°9.112 2°37.115 9.36 3.663345 32.645 -2.871232
2007-03-19 09:42:37 51°9.111 2°37.114 9.3624 3.663449 32.644314 -2.871232
2007-03-19 09:42:42 51°9.109 2°37.114 9.3597 3.663656 32.644655 -2.871232
2007-03-19 09:42:47 51°9.107 2°37.114 9.3622 3.66407 32.649619 -2.871232
2007-03-19 09:42:52 51°9.105 2°37.113 9.3727 3.664174 32.651502 -2.871232
2007-03-19 09:42:57 51°9.104 2°37.112 9.3574 3.664174 32.651502 -2.871232
2007-03-19 09:43:02 51°9.102 2°37.112 9.3599 3.664174 32.651502 -2.871232
2007-03-19 09:43:07 51°9.1 2°37.113 9.3625 3.663967 32.648592 -2.871232
2007-03-19 09:43:11 51°9.099 2°37.112 9.358 3.663967 32.649449 -2.871232